Takano, Matsumi (2013): Radiosonde measurements from station Fukuoka (2013-06) [dataset]. Japan Meteorological Agency, Tokyo, PANGAEA, https://doi.org/10.1594/PANGAEA.819126
Always quote citation above when using data! You can download the citation in several formats below.
Published: 2013-09-06 • DOI registered: 2013-10-04
Other version:
Takano, Matsumi (2013): BSRN Station-to-archive file for station Fukuoka (2013-06). ftp://ftp.bsrn.awi.de/fua/fua0613.dat.gz
Project(s):
Coverage:
Latitude: 33.582200 * Longitude: 130.376400
Date/Time Start: 2013-06-01T00:00:00 * Date/Time End: 2013-06-30T23:59:00
Minimum ALTITUDE: 18 m * Maximum ALTITUDE: 33708 m
Event(s):
FUA (Fukuoka) * Latitude: 33.582200 * Longitude: 130.376400 * Date/Time: 2010-04-01T00:00:00 * Elevation: 3.0 m * Station info: http://hdl.handle.net/10013/epic.44630.d041, update 2022: Fukuoka.pdf * Location: Japan * Method/Device: Monitoring station (MONS) * Comment: BSRN station no: 6; Surface type: asphalt; Topography type: flat, urban; Horizon from 2010 to 2014-12: doi:10.1594/PANGAEA.743875; Horizon after 2014-12: doi:10.1594/PANGAEA.845396; Station scientist: SASAKI Shun (rrc-jma@met.kishou.go.jp)
Parameter(s):
| # | Name | Short Name | Unit | Principal Investigator | Method/Device | Comment |
|---|---|---|---|---|---|---|
| 1 | DATE/TIME | Date/Time | Geocode | |||
| 2 | ALTITUDE | Altitude | m | Geocode | ||
| 3 | Pressure, at given altitude | PPPP | hPa | Takano, Matsumi | Radiosonde, Vaisala, RS92 | |
| 4 | Temperature, air | TTT | °C | Takano, Matsumi | Radiosonde, Vaisala, RS92 | |
| 5 | Dew/frost point | TdTdTd | °C | Takano, Matsumi | Radiosonde, Vaisala, RS92 | |
| 6 | Wind direction | dd | deg | Takano, Matsumi | Radiosonde, Vaisala, RS92 | |
| 7 | Wind speed | ff | m/s | Takano, Matsumi | Radiosonde, Vaisala, RS92 |
License:
Size:
28134 data points
Data
| 1 Date/Time | 2 Altitude [m] | 3 PPPP [hPa] | 4 TTT [°C] | 5 TdTdTd [°C] | 6 dd [deg] | 7 ff [m/s] |
|---|---|---|---|---|---|---|
| 2013-06-01T00:00 | 10533 | 263 | -37.1 | -42.0 | ||
| 2013-06-01T00:00 | 10613 | 260 | -37.8 | -43.9 | ||
| 2013-06-01T00:00 | 10814 | 252 | -39.4 | -44.2 | ||
| 2013-06-01T00:00 | 10889 | 250 | -40.0 | -46.1 | ||
| 2013-06-01T00:04 | 12378 | 199 | -53.1 | |||
| 2013-06-01T00:05 | 12650 | 191 | -55.5 | |||
| 2013-06-01T00:05 | 12692 | 190 | 287 | 40 | ||
| 2013-06-01T00:06 | 13133 | 177 | -58.2 | |||
| 2013-06-01T00:07 | 13541 | 166 | -58.8 | |||
| 2013-06-01T00:08 | 13758 | 160 | -60.1 | |||
| 2013-06-01T00:08 | 13880 | 157 | -59.9 | |||
| 2013-06-01T00:09 | 14108 | 152 | -61.3 | |||
| 2013-06-01T00:09 | 14169 | 150 | -61.0 | |||
| 2013-06-01T00:11 | 14829 | 135 | -64.2 | |||
| 2013-06-01T00:12 | 14988 | 131 | -63.9 | |||
| 2013-06-01T00:14 | 15701 | 117 | 310 | 25 | ||
| 2013-06-01T00:14 | 15784 | 115 | -69.1 | |||
| 2013-06-01T00:15 | 15901 | 113 | -68.4 | |||
| 2013-06-01T00:15 | 16087 | 109 | 304 | 17 | ||
| 2013-06-01T00:16 | 16279 | 106 | -70.1 | |||
| 2013-06-01T00:16 | 16373 | 104 | -69.2 | |||
| 2013-06-01T00:17 | 16625 | 100 | -70.0 | 300 | 22 | |
| 2013-06-01T00:19 | 17200 | 91 | -74.3 | |||
| 2013-06-01T00:19 | 17224 | 90 | 302 | 24 | ||
| 2013-06-01T00:20 | 17436 | 87 | -73.9 | |||
| 2013-06-01T00:20 | 17492 | 86 | -72.4 | |||
| 2013-06-01T00:20 | 17512 | 86 | 315 | 28 | ||
| 2013-06-01T00:20 | 17733 | 83 | -72.8 | |||
| 2013-06-01T00:21 | 17873 | 81 | -71.0 | 340 | 15 | |
| 2013-06-01T00:21 | 18043 | 79 | 324 | 10 | ||
| 2013-06-01T00:22 | 18165 | 77 | -71.8 | 308 | 11 | |
| 2013-06-01T00:22 | 18273 | 76 | -70.4 | |||
| 2013-06-01T00:22 | 18372 | 74 | -71.3 | |||
| 2013-06-01T00:22 | 18384 | 74 | 298 | 11 | ||
| 2013-06-01T00:23 | 18483 | 73 | -71.1 | |||
| 2013-06-01T00:23 | 18493 | 73 | 311 | 13 | ||
| 2013-06-01T00:23 | 18627 | 71 | -69.1 | |||
| 2013-06-01T00:23 | 18664 | 71 | 327 | 9 | ||
| 2013-06-01T00:24 | 18840 | 69 | -69.6 | 317 | 8 | |
| 2013-06-01T00:24 | 18973 | 67 | 335 | 5 | ||
| 2013-06-01T00:24 | 19083 | 66 | 305 | 2 | ||
| 2013-06-01T00:24 | 19095 | 66 | -67.7 | |||
| 2013-06-01T00:25 | 19192 | 65 | 293 | 5 | ||
| 2013-06-01T00:25 | 19262 | 64 | -68.2 | |||
| 2013-06-01T00:25 | 19320 | 63 | 315 | 8 | ||
| 2013-06-01T00:25 | 19375 | 63 | 327 | 8 | ||
| 2013-06-01T00:26 | 19578 | 61 | -67.0 | |||
| 2013-06-01T00:26 | 19653 | 60 | -65.8 | |||
| 2013-06-01T00:26 | 19664 | 60 | 51 | 5 | ||
| 2013-06-01T00:27 | 19817 | 58 | 13 | 1 | ||
| 2013-06-01T00:27 | 19945 | 57 | -65.6 | |||
| 2013-06-01T00:27 | 20061 | 56 | 330 | 5 | ||
| 2013-06-01T00:28 | 20236 | 55 | -62.2 | |||
| 2013-06-01T00:29 | 20563 | 52 | -60.2 | 54 | 5 | |
| 2013-06-01T00:29 | 20728 | 50 | 102 | 5 | ||
| 2013-06-01T00:29 | 20754 | 50 | 108 | 5 | ||
| 2013-06-01T00:30 | 20980 | 48 | -60.7 | |||
| 2013-06-01T00:30 | 21021 | 48 | 65 | 1 | ||
| 2013-06-01T00:30 | 21154 | 47 | 30 | 5 | ||
| 2013-06-01T00:30 | 21239 | 46 | -58.9 | |||
| 2013-06-01T00:32 | 21794 | 43 | 95 | 12 | ||
| 2013-06-01T00:33 | 22129 | 40 | 111 | 5 | ||
| 2013-06-01T00:33 | 22246 | 40 | -60.9 | |||
| 2013-06-01T00:33 | 22310 | 39 | 110 | 3 | ||
| 2013-06-01T00:34 | 22426 | 38 | 71 | 5 | ||
| 2013-06-01T00:34 | 22649 | 37 | -58.9 | |||
| 2013-06-01T00:35 | 22934 | 35 | 107 | 13 | ||
| 2013-06-01T00:35 | 23058 | 35 | -59.2 | |||
| 2013-06-01T00:36 | 23214 | 34 | 105 | 12 | ||
| 2013-06-01T00:36 | 23282 | 34 | -57.4 | |||
| 2013-06-01T00:36 | 23378 | 33 | 124 | 12 | ||
| 2013-06-01T00:37 | 23654 | 32 | 109 | 12 | ||
| 2013-06-01T00:37 | 23923 | 30 | -55.8 | |||
| 2013-06-01T00:38 | 24213 | 29 | 142 | 6 | ||
| 2013-06-01T00:38 | 24330 | 28 | 134 | 5 | ||
| 2013-06-01T00:39 | 24465 | 28 | 114 | 6 | ||
| 2013-06-01T00:39 | 24477 | 28 | -56.8 | |||
| 2013-06-01T00:39 | 24707 | 27 | 120 | 7 | ||
| 2013-06-01T00:40 | 24972 | 26 | 87 | 9 | ||
| 2013-06-01T00:42 | 25723 | 23 | -52.8 | |||
| 2013-06-01T00:42 | 25855 | 22 | 84 | 13 | ||
| 2013-06-01T00:44 | 26329 | 21 | -52.8 | |||
| 2013-06-01T00:44 | 26415 | 21 | 101 | 14 | ||
| 2013-06-01T00:45 | 26740 | 20 | 83 | 12 | ||
| 2013-06-01T00:45 | 26940 | 19 | 101 | 15 | ||
| 2013-06-01T00:46 | 27146 | 18 | -50.3 | |||
| 2013-06-01T00:46 | 27273 | 18 | 77 | 14 | ||
| 2013-06-01T00:47 | 27623 | 17 | 95 | 16 | ||
| 2013-06-01T00:47 | 27850 | 17 | 89 | 18 | ||
| 2013-06-01T00:48 | 27996 | 16 | -45.2 | |||
| 2013-06-01T00:48 | 28265 | 16 | 99 | 16 | ||
| 2013-06-01T00:49 | 28498 | 15 | 88 | 16 | ||
| 2013-06-01T00:49 | 28510 | 15 | -45.5 | |||
| 2013-06-01T00:50 | 28804 | 14 | -43.8 | |||
| 2013-06-01T00:50 | 29056 | 14 | 105 | 13 | ||
| 2013-06-01T00:51 | 29366 | 13 | -44.5 | |||
| 2013-06-01T00:52 | 29645 | 13 | 100 | 15 | ||
| 2013-06-01T00:52 | 29764 | 12 | -42.0 | |||
| 2013-06-01T00:53 | 30267 | 12 | 72 | 17 | ||
| 2013-06-01T00:53 | 30424 | 11 | -42.4 | |||
| 2013-06-01T00:54 | 30778 | 11 | -39.7 | |||
| 2013-06-01T00:55 | 31057 | 10 | 86 | 18 | ||
| 2013-06-01T00:56 | 31345 | 10 | -38.6 | 107 | 22 | |
| 2013-06-01T11:30 | 18 | 1004 | 18.3 | 17.7 | 10 | 2 |
| 2013-06-01T11:30 | 40 | 1002 | 18.1 | 16.6 | ||
| 2013-06-01T11:31 | 227 | 980 | 16.4 | 15.8 | ||
| 2013-06-01T11:31 | 258 | 977 | 63 | 5 | ||
| 2013-06-01T11:31 | 476 | 952 | 60 | 5 | ||
| 2013-06-01T11:32 | 494 | 950 | 15.0 | 14.5 | ||
| 2013-06-01T11:33 | 1051 | 889 | 13.1 | 12.9 | ||
| 2013-06-01T11:35 | 1432 | 850 | 12.6 | 12.6 | 163 | 6 |
| 2013-06-01T11:36 | 1718 | 822 | 167 | 8 | ||
| 2013-06-01T11:37 | 2050 | 790 | 10.0 | 9.9 | ||
| 2013-06-01T11:37 | 2110 | 784 | 204 | 8 | ||
| 2013-06-01T11:38 | 2301 | 766 | 186 | 12 | ||
| 2013-06-01T11:39 | 2717 | 729 | 194 | 10 | ||
| 2013-06-01T11:40 | 2926 | 711 | 7.5 | 7.2 | ||
| 2013-06-01T11:40 | 3033 | 701 | 6.7 | 6.7 | ||
| 2013-06-01T11:40 | 3106 | 695 | 252 | 8 | ||
| 2013-06-01T11:41 | 3296 | 679 | 249 | 8 | ||
| 2013-06-01T11:42 | 3458 | 666 | 270 | 8 | ||
| 2013-06-01T11:42 | 3658 | 650 | 261 | 11 | ||
| 2013-06-01T11:44 | 4122 | 614 | 2.3 | 2.3 | ||
| 2013-06-01T11:44 | 4222 | 606 | 1.5 | 0.6 | ||
| 2013-06-01T11:46 | 4570 | 581 | -0.1 | -0.1 | ||
| 2013-06-01T11:47 | 4885 | 558 | 279 | 16 | ||
| 2013-06-01T11:48 | 5292 | 530 | 280 | 13 | ||
| 2013-06-01T11:48 | 5310 | 529 | -2.9 | -3.4 | ||
| 2013-06-01T11:48 | 5365 | 526 | 286 | 15 | ||
| 2013-06-01T11:49 | 5513 | 516 | -4.0 | -5.1 | ||
| 2013-06-01T11:52 | 6458 | 457 | -8.5 | -8.9 | ||
| 2013-06-01T11:52 | 6468 | 457 | 273 | 26 | ||
| 2013-06-01T11:52 | 6608 | 449 | 270 | 23 | ||
| 2013-06-01T11:53 | 6771 | 439 | -10.5 | -11.4 | ||
| 2013-06-01T11:55 | 7404 | 404 | -13.7 | -14.9 | ||
| 2013-06-01T11:55 | 7536 | 397 | 265 | 26 | ||
| 2013-06-01T11:56 | 7814 | 383 | -16.5 | -18.4 | ||
| 2013-06-01T11:57 | 8108 | 368 | -18.3 | -19.3 | ||
| 2013-06-01T11:58 | 8349 | 357 | -20.4 | -22.1 | ||
| 2013-06-01T11:58 | 8498 | 349 | -21.3 | -22.4 | ||
| 2013-06-01T11:59 | 8581 | 346 | -22.1 | -24.1 | ||
| 2013-06-01T12:00 | 9039 | 325 | -25.3 | -27.1 | ||
| 2013-06-01T12:02 | 9668 | 297 | -30.6 | -33.3 | ||
| 2013-06-01T12:03 | 10267 | 273 | 290 | 44 | ||
| 2013-06-01T12:04 | 10482 | 265 | -36.0 | -39.4 | ||
| 2013-06-01T12:05 | 10919 | 249 | -40.0 | -43.5 | ||
| 2013-06-01T12:07 | 11501 | 228 | 287 | 51 | ||
| 2013-06-01T12:08 | 11748 | 220 | -47.1 | |||
| 2013-06-01T12:10 | 12212 | 205 | -51.5 | |||
| 2013-06-01T12:10 | 12258 | 203 | 295 | 50 | ||
| 2013-06-01T12:11 | 12487 | 196 | -53.9 | |||
| 2013-06-01T12:11 | 12550 | 194 | -53.2 | |||
| 2013-06-01T12:12 | 12839 | 186 | -54.8 | |||
| 2013-06-01T12:13 | 13028 | 180 | -54.9 | |||
| 2013-06-01T12:13 | 13060 | 179 | 291 | 34 | ||
| 2013-06-01T12:14 | 13425 | 169 | -57.6 | |||
| 2013-06-01T12:15 | 13695 | 162 | 295 | 32 | ||
| 2013-06-01T12:15 | 13721 | 162 | -57.6 | |||
| 2013-06-01T12:16 | 13958 | 156 | -58.4 | |||
| 2013-06-01T12:17 | 14187 | 150 | 278 | 27 | ||
| 2013-06-01T12:17 | 14322 | 147 | -60.9 | |||
| 2013-06-01T12:18 | 14528 | 142 | 289 | 23 | ||
| 2013-06-01T12:18 | 14682 | 139 | 295 | 24 | ||
| 2013-06-01T12:19 | 14953 | 133 | -63.2 | |||
| 2013-06-01T12:20 | 15134 | 129 | 295 | 19 | ||
| 2013-06-01T12:20 | 15185 | 128 | -63.0 | |||
| 2013-06-01T12:21 | 15403 | 123 | 276 | 18 | ||
| 2013-06-01T12:22 | 15800 | 115 | -67.3 | |||
| 2013-06-01T12:22 | 15887 | 114 | 292 | 17 | ||
| 2013-06-01T12:23 | 16148 | 109 | -68.1 | |||
| 2013-06-01T12:24 | 16655 | 100 | -71.2 | 289 | 14 | |
| 2013-06-01T12:25 | 16971 | 95 | 308 | 16 | ||
| 2013-06-01T12:26 | 17313 | 89 | -73.5 | |||
| 2013-06-01T12:26 | 17436 | 88 | -74.6 | |||
| 2013-06-01T12:27 | 17578 | 85 | -74.2 | |||
| 2013-06-01T12:27 | 17722 | 83 | 299 | 16 | ||
| 2013-06-01T12:27 | 17844 | 82 | -75.6 | |||
| 2013-06-01T12:29 | 18304 | 75 | 308 | 17 | ||
| 2013-06-01T12:29 | 18370 | 75 | -70.5 | |||
| 2013-06-01T12:30 | 18613 | 72 | 346 | 10 | ||
| 2013-06-01T12:30 | 18800 | 69 | 319 | 5 | ||
| 2013-06-01T12:30 | 18884 | 68 | 303 | 5 | ||
| 2013-06-01T12:31 | 19018 | 67 | -69.9 | |||
| 2013-06-01T12:31 | 19121 | 66 | 328 | 6 | ||
| 2013-06-01T12:31 | 19227 | 65 | 308 | 5 | ||
| 2013-06-01T12:31 | 19275 | 64 | 302 | 5 | ||
| 2013-06-01T12:32 | 19331 | 64 | -69.1 | |||
| 2013-06-01T12:32 | 19454 | 62 | 329 | 8 | ||
| 2013-06-01T12:32 | 19508 | 62 | -67.2 | |||
| 2013-06-01T12:33 | 19670 | 60 | 292 | 6 | ||
| 2013-06-01T12:33 | 19725 | 60 | -67.6 | |||
| 2013-06-01T12:33 | 19793 | 59 | 306 | 9 | ||
| 2013-06-01T12:34 | 19977 | 57 | 12 | 6 | ||
| 2013-06-01T12:34 | 20027 | 57 | -64.9 | |||
| 2013-06-01T12:34 | 20070 | 56 | 39 | 5 | ||
| 2013-06-01T12:34 | 20145 | 56 | -62.7 | |||
| 2013-06-01T12:34 | 20283 | 54 | 39 | 3 | ||
| 2013-06-01T12:35 | 20328 | 54 | -62.8 | |||
| 2013-06-01T12:35 | 20386 | 53 | -61.3 | |||
| 2013-06-01T12:35 | 20490 | 53 | 97 | 7 | ||
| 2013-06-01T12:35 | 20581 | 52 | 91 | 6 | ||
| 2013-06-01T12:36 | 20805 | 50 | 29 | 5 | ||
| 2013-06-01T12:36 | 20902 | 49 | -60.6 | |||
| 2013-06-01T12:37 | 21044 | 48 | 85 | 9 | ||
| 2013-06-01T12:37 | 21285 | 46 | 126 | 6 | ||
| 2013-06-01T12:38 | 21353 | 46 | -62.0 | |||
| 2013-06-01T12:38 | 21405 | 45 | 91 | 4 | ||
| 2013-06-01T12:38 | 21488 | 45 | -59.5 | |||
| 2013-06-01T12:38 | 21562 | 44 | 59 | 5 | ||
| 2013-06-01T12:38 | 21655 | 44 | 55 | 8 | ||
| 2013-06-01T12:39 | 21822 | 42 | -57.3 | |||
| 2013-06-01T12:39 | 21894 | 42 | 81 | 14 | ||
| 2013-06-01T12:40 | 22135 | 40 | -59.1 | |||
| 2013-06-01T12:40 | 22221 | 40 | 94 | 8 | ||
| 2013-06-01T12:41 | 22552 | 38 | 77 | 6 | ||
| 2013-06-01T12:41 | 22710 | 37 | 43 | 7 | ||
| 2013-06-01T12:42 | 22929 | 36 | -56.2 | 67 | 9 | |
| 2013-06-01T23:30 | 18 | 1003 | 18.3 | 17.3 | 140 | 1 |
| 2013-06-01T23:30 | 79 | 996 | 17.3 | 16.3 | ||
| 2013-06-01T23:31 | 203 | 982 | 16.3 | 15.7 | ||
| 2013-06-01T23:32 | 595 | 938 | 14.5 | 14.3 | ||
| 2013-06-01T23:33 | 1179 | 875 | 12.9 | 12.7 | ||
| 2013-06-01T23:34 | 1390 | 854 | 52 | 5 | ||
| 2013-06-01T23:34 | 1558 | 837 | 44 | 7 | ||
| 2013-06-01T23:35 | 1736 | 819 | 43 | 6 | ||
| 2013-06-01T23:35 | 1779 | 815 | 10.0 | 9.5 | ||
| 2013-06-01T23:36 | 2134 | 781 | 9.0 | 8.4 | ||
| 2013-06-01T23:37 | 2625 | 736 | 6.8 | 6.1 | ||
| 2013-06-01T23:38 | 2713 | 728 | 116 | 5 | ||
| 2013-06-01T23:38 | 2738 | 726 | 7.3 | 5.3 | ||
| 2013-06-01T23:38 | 2865 | 715 | 7.4 | 5.4 | ||
| 2013-06-01T23:38 | 2914 | 710 | 0 | 0 | ||
| 2013-06-01T23:38 | 3034 | 700 | 6.2 | 4.7 | ||
| 2013-06-01T23:39 | 3190 | 687 | 6.0 | 3.7 | ||
| 2013-06-01T23:40 | 3767 | 640 | 1.9 | 1.2 | ||
| 2013-06-01T23:41 | 3819 | 636 | 2.7 | 0.8 | ||
| 2013-06-01T23:41 | 3843 | 634 | 300 | 3 | ||
| 2013-06-01T23:41 | 3894 | 630 | 3.1 | -0.2 | ||
| 2013-06-01T23:41 | 3966 | 624 | 283 | 5 | ||
| 2013-06-01T23:41 | 3978 | 624 | 2.7 | -1.1 | ||
| 2013-06-01T23:41 | 4036 | 619 | 2.9 | -3.5 | ||
| 2013-06-01T23:42 | 4219 | 605 | 271 | 8 | ||
| 2013-06-01T23:42 | 4307 | 599 | 2.5 | -8.2 | ||
| 2013-06-01T23:42 | 4530 | 582 | 2.5 | -13.3 | ||
| 2013-06-01T23:43 | 4619 | 576 | 287 | 16 | ||
| 2013-06-01T23:43 | 4814 | 562 | 279 | 18 | ||
| 2013-06-01T23:43 | 4865 | 559 | 0.1 | -15.0 | ||
| 2013-06-01T23:44 | 5298 | 529 | -3.5 | -13.7 | ||
| 2013-06-01T23:45 | 5449 | 519 | 262 | 16 | ||
| 2013-06-01T23:45 | 5502 | 516 | -5.2 | -16.4 | ||
| 2013-06-01T23:45 | 5546 | 513 | -5.6 | -15.9 | ||
| 2013-06-01T23:45 | 5570 | 511 | -5.8 | -13.6 | ||
| 2013-06-01T23:46 | 5824 | 495 | -7.9 | -11.4 | ||
| 2013-06-01T23:47 | 6078 | 479 | -9.9 | -12.2 | ||
| 2013-06-01T23:47 | 6202 | 471 | -10.5 | -12.4 | ||
| 2013-06-01T23:47 | 6345 | 463 | -11.3 | -14.1 | ||
| 2013-06-01T23:47 | 6436 | 457 | -11.1 | -13.3 | ||
| 2013-06-01T23:48 | 6623 | 446 | -12.3 | -13.2 | ||
| 2013-06-01T23:49 | 6834 | 434 | -13.0 | -15.4 | ||
| 2013-06-01T23:49 | 6950 | 427 | -12.9 | -16.4 | ||
| 2013-06-01T23:49 | 7025 | 423 | -13.3 | -17.6 | ||
| 2013-06-01T23:50 | 7433 | 401 | -15.3 | -19.7 | ||
| 2013-06-01T23:51 | 7816 | 381 | -17.5 | -21.7 | ||
| 2013-06-01T23:52 | 8036 | 370 | -19.2 | -22.7 | ||
| 2013-06-01T23:52 | 8154 | 364 | -19.7 | -22.8 | ||
| 2013-06-01T23:52 | 8252 | 359 | -20.1 | -24.3 | ||
| 2013-06-01T23:53 | 8448 | 350 | -21.8 | -26.1 | ||
| 2013-06-01T23:54 | 8849 | 331 | 269 | 39 | ||
| 2013-06-01T23:54 | 8881 | 330 | -24.9 | -28.8 | ||
| 2013-06-01T23:54 | 8967 | 326 | -25.6 | -30.7 | ||
| 2013-06-01T23:55 | 9200 | 316 | -27.7 | -31.5 | ||
| 2013-06-01T23:56 | 9670 | 296 | -31.0 | -35.9 | ||
| 2013-06-01T23:56 | 9814 | 290 | -31.7 | -37.2 | ||
| 2013-06-01T23:56 | 9902 | 286 | -32.2 | -36.6 | ||
| 2013-06-01T23:57 | 10000 | 282 | -32.9 | -38.2 | ||
| 2013-06-01T23:57 | 10188 | 275 | -34.3 | -38.0 | ||
| 2013-06-01T23:57 | 10343 | 269 | -35.2 | -41.6 | ||
| 2013-06-01T23:58 | 10456 | 264 | -36.0 | -43.3 | ||
| 2013-06-01T23:58 | 10617 | 258 | -37.4 | -44.4 | ||
| 2013-06-01T23:59 | 10789 | 252 | -38.9 | -43.9 | ||
| 2013-06-01T23:59 | 10918 | 247 | -40.0 | -44.8 | ||
| 2013-06-02T00:01 | 11768 | 218 | -46.7 | |||
| 2013-06-02T00:02 | 11961 | 212 | 271 | 48 | ||
| 2013-06-02T00:02 | 12232 | 203 | -51.2 | |||
| 2013-06-02T00:03 | 12350 | 199 | -51.4 | |||
| 2013-06-02T00:03 | 12595 | 192 | -53.5 | |||
| 2013-06-02T00:03 | 12618 | 191 | 271 | 47 | ||
| 2013-06-02T00:04 | 12930 | 182 | -54.8 | |||
| 2013-06-02T00:05 | 13250 | 173 | -57.2 | |||
| 2013-06-02T00:06 | 13442 | 168 | -56.4 | |||
| 2013-06-02T00:07 | 13991 | 154 | 283 | 24 | ||
| 2013-06-02T00:07 | 14016 | 153 | -58.8 | |||
| 2013-06-02T00:09 | 14543 | 141 | -62.9 | |||
| 2013-06-02T00:10 | 15009 | 131 | -63.6 | |||
| 2013-06-02T00:11 | 15304 | 124 | -64.6 | |||
| 2013-06-02T00:12 | 15572 | 119 | -66.9 | |||
| 2013-06-02T00:12 | 15661 | 117 | -67.1 | |||
| 2013-06-02T00:12 | 15727 | 116 | -66.3 | |||
| 2013-06-02T00:13 | 15942 | 112 | 276 | 18 | ||
| 2013-06-02T00:13 | 15955 | 112 | -67.5 | |||
| 2013-06-02T00:14 | 16175 | 108 | 263 | 18 | ||
| 2013-06-02T00:14 | 16221 | 107 | -67.7 | |||
| 2013-06-02T00:14 | 16368 | 104 | -68.9 | |||
| 2013-06-02T00:15 | 16621 | 100 | -69.6 | 275 | 19 | |
| 2013-06-02T00:16 | 16935 | 95 | -71.9 | |||
| 2013-06-02T00:16 | 16971 | 94 | 275 | 18 | ||
| 2013-06-02T00:17 | 17269 | 90 | 297 | 16 | ||
| 2013-06-02T00:17 | 17457 | 87 | -72.5 | |||
| 2013-06-02T00:18 | 17685 | 84 | 282 | 14 | ||
| 2013-06-02T00:18 | 17707 | 83 | -74.6 | |||
| 2013-06-02T00:19 | 17869 | 81 | -73.6 | |||
| 2013-06-02T00:19 | 17983 | 79 | -74.2 | |||
| 2013-06-02T00:20 | 18279 | 75 | 304 | 10 | ||
| 2013-06-02T00:20 | 18401 | 74 | 310 | 7 | ||
| 2013-06-02T00:20 | 18449 | 73 | 318 | 5 | ||
| 2013-06-02T00:20 | 18459 | 73 | -73.0 | |||
| 2013-06-02T00:21 | 18594 | 71 | -70.2 | 0 | 0 | |
| 2013-06-02T00:21 | 18782 | 69 | -71.1 | |||
| 2013-06-02T00:22 | 19067 | 66 | -70.6 | |||
| 2013-06-02T00:22 | 19212 | 64 | -67.5 | |||
| 2013-06-02T00:23 | 19286 | 64 | 184 | 5 | ||
| 2013-06-02T00:23 | 19419 | 62 | -67.7 | |||
| 2013-06-02T00:23 | 19559 | 61 | -67.1 | |||
| 2013-06-02T00:23 | 19604 | 60 | -65.7 | |||
| 2013-06-02T00:24 | 19715 | 59 | 227 | 5 | ||
| 2013-06-02T00:24 | 19727 | 59 | -65.2 | |||
| 2013-06-02T00:24 | 19962 | 57 | 288 | 6 | ||
| 2013-06-02T00:25 | 20024 | 56 | -61.8 | |||
| 2013-06-02T00:26 | 20449 | 53 | 69 | 5 | ||
| 2013-06-02T00:26 | 20486 | 52 | -61.1 | |||
| 2013-06-02T00:26 | 20629 | 51 | -61.7 | |||
| 2013-06-02T00:26 | 20696 | 51 | 117 | 8 | ||
| 2013-06-02T00:27 | 21017 | 48 | 89 | 9 | ||
| 2013-06-02T00:28 | 21218 | 47 | -61.7 | |||
| 2013-06-02T00:28 | 21380 | 45 | 120 | 5 | ||
| 2013-06-02T00:28 | 21483 | 45 | -60.2 | |||
| 2013-06-02T00:29 | 21510 | 44 | 93 | 2 | ||
| 2013-06-02T00:29 | 21609 | 44 | 47 | 5 | ||
| 2013-06-02T00:29 | 21699 | 43 | -56.8 | |||
| 2013-06-02T00:30 | 21968 | 41 | 85 | 15 | ||
| 2013-06-02T00:30 | 22141 | 40 | 101 | 13 | ||
| 2013-06-02T00:30 | 22206 | 40 | -58.6 | |||
| 2013-06-02T00:31 | 22392 | 39 | 95 | 11 | ||
| 2013-06-02T00:31 | 22639 | 37 | 110 | 11 | ||
| 2013-06-02T00:32 | 22862 | 36 | 90 | 13 | ||
| 2013-06-02T00:33 | 23088 | 35 | 98 | 11 | ||
| 2013-06-02T00:33 | 23299 | 33 | 81 | 11 | ||
| 2013-06-02T00:34 | 23469 | 33 | -56.6 | |||
| 2013-06-02T00:34 | 23507 | 32 | 102 | 11 | ||
| 2013-06-02T00:34 | 23817 | 31 | 80 | 9 | ||
| 2013-06-02T00:35 | 24044 | 30 | 91 | 9 | ||
| 2013-06-02T00:35 | 24139 | 29 | -53.0 | |||
| 2013-06-02T00:37 | 24804 | 26 | 88 | 14 | ||
| 2013-06-02T00:38 | 25122 | 25 | -52.1 | 102 | 13 | |
| 2013-06-02T00:39 | 25773 | 23 | 87 | 14 | ||
| 2013-06-02T00:40 | 26212 | 21 | -48.2 | |||
| 2013-06-02T00:41 | 26444 | 21 | -49.1 | |||
| 2013-06-02T00:43 | 27318 | 18 | -46.9 | |||
| 2013-06-02T00:43 | 27601 | 17 | -44.2 | |||
| 2013-06-02T00:44 | 27811 | 17 | 111 | 18 | ||
| 2013-06-02T00:47 | 29367 | 13 | 88 | 16 | ||
| 2013-06-02T00:47 | 29387 | 13 | -41.1 | |||
| 2013-06-02T00:49 | 30107 | 12 | -40.7 | 117 | 21 | |
| 2013-06-02T11:30 | 18 | 1005 | 18.0 | 16.7 | 70 | 2 |
| 2013-06-02T11:30 | 141 | 991 | 16.8 | 15.7 | ||
| 2013-06-02T11:31 | 243 | 979 | 16.7 | 15.4 | ||
| 2013-06-02T11:31 | 367 | 965 | 88 | 5 | ||
| 2013-06-02T11:31 | 402 | 961 | 15.5 | 14.7 | ||
| 2013-06-02T11:31 | 529 | 947 | 15.7 | 14.7 | ||
| 2013-06-02T11:32 | 727 | 925 | 14.8 | 13.8 | ||
| 2013-06-02T11:32 | 838 | 913 | 78 | 12 | ||
| 2013-06-02T11:33 | 925 | 904 | 14.6 | 13.6 | ||
| 2013-06-02T11:33 | 1153 | 880 | 13.1 | 12.6 | 63 | 11 |
| 2013-06-02T11:34 | 1397 | 855 | 12.5 | 11.7 | ||
| 2013-06-02T11:34 | 1556 | 839 | 94 | 10 | ||
| 2013-06-02T11:34 | 1626 | 832 | 11.1 | 10.6 | ||
| 2013-06-02T11:35 | 1783 | 816 | 84 | 9 | ||
| 2013-06-02T11:35 | 1792 | 815 | 10.7 | 10.2 | ||
| 2013-06-02T11:35 | 1912 | 804 | 9.8 | 9.5 | ||
| 2013-06-02T11:37 | 2264 | 770 | 116 | 6 | ||
| 2013-06-02T11:37 | 2442 | 754 | 154 | 6 | ||
| 2013-06-02T11:38 | 2606 | 739 | 7.5 | 7.4 | ||
| 2013-06-02T11:38 | 2669 | 733 | 159 | 5 | ||
| 2013-06-02T11:40 | 3260 | 683 | 57 | 5 | ||
| 2013-06-02T11:40 | 3359 | 674 | 4.0 | 3.7 | ||
| 2013-06-02T11:40 | 3457 | 666 | 4.6 | 2.9 | ||
| 2013-06-02T11:40 | 3518 | 661 | 4.4 | 2.6 | ||
| 2013-06-02T11:40 | 3531 | 660 | 93 | 5 | ||
| 2013-06-02T11:41 | 3700 | 647 | 2.7 | 1.8 | ||
| 2013-06-02T11:42 | 4208 | 607 | -0.5 | -0.6 | ||
| 2013-06-02T11:42 | 4317 | 599 | -1.3 | -1.7 | ||
| 2013-06-02T11:43 | 4387 | 594 | -1.8 | -3.7 | ||
| 2013-06-02T11:43 | 4411 | 592 | -1.8 | -6.0 | ||
| 2013-06-02T11:43 | 4437 | 590 | -1.1 | -11.3 | ||
| 2013-06-02T11:43 | 4476 | 587 | -0.4 | -16.7 | 0 | 0 |
| 2013-06-02T11:43 | 4624 | 576 | -0.5 | -32.2 | ||
| 2013-06-02T11:44 | 4791 | 564 | -1.0 | -32.6 | ||
| 2013-06-02T11:44 | 4874 | 559 | -1.8 | -30.6 | ||
| 2013-06-02T11:44 | 4990 | 550 | -2.8 | -46.0 | ||
| 2013-06-02T11:45 | 5130 | 541 | -3.9 | -43.0 | ||
| 2013-06-02T11:45 | 5327 | 527 | -5.5 | -22.9 | ||
| 2013-06-02T11:46 | 5685 | 504 | -8.8 | -24.4 | ||
| 2013-06-02T11:47 | 6016 | 483 | -12.0 | -21.5 | ||
| 2013-06-02T11:47 | 6083 | 478 | 291 | 5 | ||
| 2013-06-02T11:48 | 6293 | 465 | 270 | 5 | ||
| 2013-06-02T11:48 | 6332 | 463 | -15.2 | -20.3 | ||
| 2013-06-02T11:48 | 6402 | 459 | -15.7 | -19.3 | ||
| 2013-06-02T11:48 | 6424 | 457 | 253 | 9 | ||
| 2013-06-02T11:48 | 6452 | 456 | -15.5 | -18.2 | ||
| 2013-06-02T11:48 | 6516 | 452 | -14.4 | -15.5 | ||
| 2013-06-02T11:49 | 6623 | 445 | -15.0 | -16.0 | ||
| 2013-06-02T11:49 | 6769 | 437 | -15.8 | -18.3 | ||
| 2013-06-02T11:49 | 6872 | 431 | -16.8 | -18.7 | ||
| 2013-06-02T11:50 | 7115 | 417 | -18.3 | -22.3 | ||
| 2013-06-02T11:50 | 7157 | 415 | 274 | 23 | ||
| 2013-06-02T11:50 | 7169 | 414 | -18.1 | -22.9 | ||
| 2013-06-02T11:50 | 7271 | 409 | -18.3 | -22.8 | ||
| 2013-06-02T11:51 | 7377 | 403 | -18.1 | -21.4 | ||
| 2013-06-02T11:51 | 7554 | 393 | -17.1 | -20.5 | ||
| 2013-06-02T11:51 | 7587 | 392 | 262 | 37 | ||
| 2013-06-02T11:52 | 7842 | 379 | 249 | 39 | ||
| 2013-06-02T11:52 | 7869 | 377 | -17.9 | -19.8 | ||
| 2013-06-02T11:53 | 8119 | 365 | -20.0 | -21.3 | ||
| 2013-06-02T11:53 | 8442 | 349 | -22.3 | -23.7 | ||
| 2013-06-02T11:54 | 8502 | 346 | -22.4 | -24.6 | ||
| 2013-06-02T11:54 | 8600 | 342 | -23.1 | -25.7 | ||
| 2013-06-02T11:54 | 8762 | 334 | -24.5 | -26.3 | ||
| 2013-06-02T11:55 | 8931 | 327 | -25.6 | -28.3 | ||
| 2013-06-02T11:55 | 9030 | 322 | -26.5 | -28.3 | ||
| 2013-06-02T11:56 | 9259 | 312 | -28.3 | -29.8 | ||
| 2013-06-02T11:56 | 9356 | 308 | -28.8 | -31.6 | ||
| 2013-06-02T11:57 | 9567 | 299 | -30.6 | -33.5 | ||
| 2013-06-02T11:57 | 9734 | 292 | -31.3 | -38.1 | ||
| 2013-06-02T11:57 | 9870 | 286 | -32.6 | -38.1 | ||
| 2013-06-02T11:58 | 10050 | 279 | -34.2 | -41.2 | ||
| 2013-06-02T11:58 | 10205 | 273 | -35.7 | -41.7 | ||
| 2013-06-02T11:58 | 10278 | 270 | -36.1 | -43.4 | ||
| 2013-06-02T11:59 | 10335 | 268 | -36.0 | -46.5 | ||
| 2013-06-02T11:59 | 10384 | 266 | -35.3 | -53.4 | ||
| 2013-06-02T11:59 | 10405 | 265 | -35.3 | -55.4 | ||
| 2013-06-02T11:59 | 10465 | 263 | -35.8 | -60.6 | ||
| 2013-06-02T12:00 | 10952 | 245 | -40.0 | -60.0 | ||
| 2013-06-02T12:02 | 11500 | 226 | 257 | 47 | ||
| 2013-06-02T12:03 | 11950 | 211 | -48.7 | |||
| 2013-06-02T12:05 | 12719 | 188 | -54.0 | |||
| 2013-06-02T12:06 | 12917 | 182 | -53.7 | |||
| 2013-06-02T12:08 | 13561 | 164 | -57.3 | |||
| 2013-06-02T12:09 | 13697 | 161 | -57.2 | |||
| 2013-06-02T12:10 | 14272 | 147 | -61.2 | |||
| 2013-06-02T12:11 | 14443 | 143 | -62.0 | |||
| 2013-06-02T12:11 | 14585 | 140 | -61.4 | |||
| 2013-06-02T12:12 | 14721 | 137 | -61.5 | |||
| 2013-06-02T12:13 | 15154 | 127 | -65.1 | |||
| 2013-06-02T12:13 | 15227 | 126 | -65.4 | |||
| 2013-06-02T12:13 | 15329 | 124 | -64.8 | |||
| 2013-06-02T12:15 | 15947 | 112 | -70.2 | |||
| 2013-06-02T12:15 | 15980 | 111 | -69.4 | |||
| 2013-06-02T12:16 | 16033 | 110 | -69.6 | |||
| 2013-06-02T12:16 | 16087 | 109 | -68.3 | |||
| 2013-06-02T12:16 | 16276 | 106 | -68.5 | |||
| 2013-06-02T12:17 | 16425 | 103 | -67.6 | |||
| 2013-06-02T12:17 | 16601 | 100 | -67.9 | 272 | 20 | |
| 2013-06-02T12:18 | 16797 | 97 | -68.9 | |||
| 2013-06-02T12:19 | 17166 | 91 | -69.6 | |||
| 2013-06-02T12:19 | 17268 | 90 | -68.4 | |||
| 2013-06-02T12:19 | 17289 | 89 | 250 | 10 | ||
| 2013-06-02T12:21 | 17889 | 81 | -72.3 | |||
| 2013-06-02T12:22 | 18242 | 76 | 262 | 8 | ||
| 2013-06-02T12:22 | 18264 | 76 | -70.2 | |||
| 2013-06-02T12:23 | 18467 | 73 | 276 | 13 | ||
| 2013-06-02T12:23 | 18479 | 73 | -70.7 | |||
| 2013-06-02T12:23 | 18512 | 73 | 284 | 13 | ||
| 2013-06-02T12:23 | 18588 | 72 | -68.8 | |||
| 2013-06-02T12:24 | 18807 | 69 | 342 | 7 | ||
| 2013-06-02T12:25 | 18992 | 67 | 333 | 2 | ||
| 2013-06-02T12:25 | 19137 | 65 | -68.7 | |||
| 2013-06-02T12:26 | 19405 | 63 | -65.5 | |||
| 2013-06-02T12:26 | 19472 | 62 | -63.4 | |||
| 2013-06-02T12:27 | 19767 | 59 | 140 | 5 | ||
| 2013-06-02T12:27 | 19820 | 58 | -64.1 | |||
| 2013-06-02T12:28 | 20038 | 56 | 192 | 5 | ||
| 2013-06-02T12:28 | 20169 | 55 | -60.0 | |||
| 2013-06-02T12:29 | 20379 | 53 | -60.9 | |||
| 2013-06-02T12:29 | 20460 | 53 | -59.7 | |||
| 2013-06-02T12:30 | 20667 | 51 | 89 | 5 | ||
| 2013-06-02T12:30 | 20688 | 51 | -60.5 | |||
| 2013-06-02T12:31 | 21059 | 48 | -59.3 | |||
| 2013-06-02T12:31 | 21070 | 48 | 135 | 6 | ||
| 2013-06-02T12:31 | 21233 | 47 | -60.0 | |||
| 2013-06-02T12:32 | 21566 | 44 | -58.0 | |||
| 2013-06-02T12:33 | 21741 | 43 | 122 | 9 | ||
| 2013-06-02T12:33 | 21978 | 41 | 90 | 5 | ||
| 2013-06-02T12:34 | 22161 | 40 | 122 | 7 | ||
| 2013-06-02T12:34 | 22228 | 40 | 119 | 7 | ||
| 2013-06-02T12:34 | 22364 | 39 | 79 | 6 | ||
| 2013-06-02T12:35 | 22607 | 37 | -57.1 | |||
| 2013-06-02T12:35 | 22634 | 37 | 113 | 6 | ||
| 2013-06-02T12:35 | 22795 | 36 | 64 | 6 | ||
| 2013-06-02T12:39 | 24060 | 30 | 81 | 11 | ||
| 2013-06-02T12:39 | 24310 | 29 | -54.1 | 103 | 10 | |
| 2013-06-02T12:40 | 24702 | 27 | 77 | 10 | ||
| 2013-06-02T12:42 | 25541 | 24 | -48.8 | |||
| 2013-06-02T12:42 | 25556 | 24 | 96 | 14 | ||
| 2013-06-02T12:44 | 26367 | 21 | 92 | 11 | ||
| 2013-06-02T12:45 | 26813 | 20 | 82 | 15 | ||
| 2013-06-02T12:46 | 26988 | 19 | 89 | 18 | ||
| 2013-06-02T12:46 | 27124 | 19 | 96 | 17 | ||
| 2013-06-02T12:46 | 27151 | 19 | -46.7 | |||
| 2013-06-02T12:47 | 27510 | 18 | -43.9 | |||
| 2013-06-02T12:48 | 28150 | 16 | 92 | 12 | ||
| 2013-06-02T12:51 | 29282 | 14 | 103 | 21 | ||
| 2013-06-02T12:51 | 29342 | 13 | -43.9 | |||
| 2013-06-02T12:52 | 29766 | 13 | -41.3 | |||
| 2013-06-02T12:52 | 29809 | 13 | -41.4 | 107 | 16 | |
| 2013-06-02T23:30 | 18 | 1008 | 21.8 | 17.2 | 360 | 4 |
| 2013-06-02T23:30 | 106 | 998 | 20.3 | 16.9 | ||
| 2013-06-02T23:31 | 264 | 980 | 17.8 | 14.1 | ||
| 2013-06-02T23:31 | 327 | 973 | 17.6 | 13.7 | ||
| 2013-06-02T23:31 | 354 | 970 | 70 | 5 | ||
| 2013-06-02T23:32 | 537 | 949 | 15.6 | 12.9 | ||
| 2013-06-02T23:32 | 570 | 945 | 16.0 | 12.6 | ||
| 2013-06-02T23:32 | 617 | 940 | 96 | 7 | ||
| 2013-06-02T23:33 | 939 | 905 | 13.1 | 11.3 | ||
| 2013-06-02T23:33 | 1051 | 893 | 13.3 | 10.8 | 80 | 12 |
| 2013-06-02T23:33 | 1091 | 889 | 13.9 | 9.7 | ||
| 2013-06-02T23:34 | 1159 | 882 | 14.7 | 9.7 | ||
| 2013-06-02T23:34 | 1282 | 869 | 60 | 11 | ||
| 2013-06-02T23:34 | 1320 | 865 | 13.8 | 9.0 | ||
| 2013-06-02T23:34 | 1421 | 855 | 14.1 | 7.8 | ||
| 2013-06-02T23:35 | 1556 | 841 | 13.3 | 6.9 | ||
| 2013-06-02T23:35 | 1614 | 835 | 13.5 | 5.4 | ||
| 2013-06-02T23:35 | 1706 | 826 | 64 | 6 | ||
| 2013-06-02T23:35 | 1788 | 818 | 12.2 | 3.9 | ||
| 2013-06-02T23:36 | 1909 | 807 | 12.4 | -1.5 | ||
| 2013-06-02T23:36 | 1969 | 801 | 30 | 8 | ||
| 2013-06-02T23:36 | 2005 | 798 | 13.4 | -7.9 | ||
| 2013-06-02T23:36 | 2084 | 790 | 13.4 | -11.9 | ||
| 2013-06-02T23:37 | 2391 | 762 | 10.9 | -13.2 | ||
| 2013-06-02T23:37 | 2447 | 756 | 10.6 | -15.0 | ||
| 2013-06-02T23:37 | 2471 | 754 | 10.7 | -22.3 | ||
| 2013-06-02T23:38 | 2611 | 742 | 10.1 | -19.1 | ||
| 2013-06-02T23:40 | 3195 | 691 | 40 | 8 | ||
| 2013-06-02T23:41 | 3625 | 655 | 2.2 | -21.8 | ||
| 2013-06-02T23:41 | 3705 | 649 | 2.1 | -33.8 | ||
| 2013-06-02T23:42 | 3766 | 644 | 1.6 | -26.8 | ||
| 2013-06-02T23:42 | 3779 | 643 | 19 | 9 | ||
| 2013-06-02T23:42 | 3810 | 640 | 1.5 | -34.2 | ||
| 2013-06-02T23:42 | 3921 | 632 | 0.6 | -24.7 | ||
| 2013-06-02T23:42 | 3966 | 628 | 27 | 10 | ||
| 2013-06-02T23:42 | 4024 | 623 | -0.3 | -24.6 | ||
| 2013-06-02T23:43 | 4168 | 612 | -0.6 | -25.7 | ||
| 2013-06-02T23:43 | 4256 | 606 | 23 | 8 | ||
| 2013-06-02T23:43 | 4356 | 598 | -1.4 | -27.2 | ||
| 2013-06-02T23:44 | 4443 | 592 | 43 | 5 | ||
| 2013-06-02T23:44 | 4670 | 575 | -4.1 | -33.6 | ||
| 2013-06-02T23:44 | 4771 | 568 | 2 | 2 | ||
| 2013-06-02T23:45 | 4794 | 566 | -5.0 | -35.6 | ||
| 2013-06-02T23:45 | 4898 | 558 | -5.4 | -35.9 | ||
| 2013-06-02T23:45 | 4939 | 555 | 311 | 5 | ||
| 2013-06-02T23:45 | 4976 | 553 | -5.1 | -37.2 | ||
| 2013-06-02T23:46 | 5146 | 541 | -5.8 | -36.2 | ||
| 2013-06-02T23:46 | 5238 | 535 | 280 | 5 | ||
| 2013-06-02T23:46 | 5443 | 521 | 271 | 5 | ||
| 2013-06-02T23:47 | 5510 | 516 | -8.9 | -34.1 | ||
| 2013-06-02T23:47 | 5599 | 510 | -9.7 | -36.7 | ||
| 2013-06-02T23:47 | 5684 | 505 | -9.5 | -56.4 | 307 | 7 |
| 2013-06-02T23:48 | 5964 | 487 | -11.0 | -57.3 | ||
| 2013-06-02T23:49 | 6410 | 459 | -15.1 | -50.9 | ||
| 2013-06-02T23:50 | 6656 | 444 | 288 | 10 | ||
| 2013-06-02T23:50 | 6780 | 437 | -18.0 | -50.5 | ||
| 2013-06-02T23:52 | 7202 | 413 | -22.0 | -51.6 | ||
| 2013-06-02T23:52 | 7280 | 408 | 301 | 16 | ||
| 2013-06-02T23:52 | 7447 | 399 | -22.8 | -56.4 | ||
| 2013-06-02T23:53 | 7615 | 390 | 266 | 19 | ||
| 2013-06-02T23:53 | 7675 | 387 | -22.7 | -56.4 | ||
| 2013-06-02T23:53 | 7753 | 383 | -23.3 | -56.8 | ||
| 2013-06-02T23:54 | 7912 | 375 | -23.3 | -56.8 | ||
| 2013-06-02T23:55 | 8274 | 357 | -26.4 | -56.7 | 301 | 18 |
| 2013-06-02T23:55 | 8429 | 349 | -26.7 | -55.1 | ||
| 2013-06-02T23:56 | 8757 | 333 | 266 | 19 | ||
| 2013-06-02T23:57 | 9178 | 314 | -32.6 | -59.6 | ||
| 2013-06-02T23:57 | 9224 | 312 | 250 | 26 | ||
| 2013-06-02T23:58 | 9375 | 305 | -34.6 | -61.1 | ||
| 2013-06-02T23:59 | 9874 | 284 | -37.2 | -69.8 | ||
| 2013-06-03T00:00 | 10233 | 270 | -40.0 | -68.9 | ||
| 2013-06-03T00:01 | 10403 | 263 | 248 | 47 | ||
| 2013-06-03T00:02 | 10790 | 249 | -44.2 | |||
| 2013-06-03T00:04 | 11385 | 227 | -45.8 | |||
| 2013-06-03T00:04 | 11627 | 219 | 255 | 55 | ||
| 2013-06-03T00:05 | 11838 | 212 | -47.7 | |||
| 2013-06-03T00:06 | 12146 | 203 | -49.9 | |||
| 2013-06-03T00:07 | 12527 | 191 | -51.6 | |||
| 2013-06-03T00:07 | 12607 | 189 | -51.0 | |||
| 2013-06-03T00:08 | 12833 | 182 | 244 | 51 | ||
| 2013-06-03T00:08 | 12995 | 178 | -54.1 | |||
| 2013-06-03T00:10 | 13394 | 167 | -56.1 | |||
| 2013-06-03T00:10 | 13446 | 166 | 250 | 49 | ||
| 2013-06-03T00:11 | 13649 | 160 | -56.7 | |||
| 2013-06-03T00:11 | 13786 | 157 | -55.1 | |||
| 2013-06-03T00:12 | 14015 | 151 | -55.7 | |||
| 2013-06-03T00:12 | 14036 | 151 | 255 | 37 | ||
| 2013-06-03T00:13 | 14324 | 144 | -57.8 | |||
| 2013-06-03T00:13 | 14457 | 141 | 261 | 35 | ||
| 2013-06-03T00:14 | 14682 | 136 | -58.7 | |||
| 2013-06-03T00:15 | 15129 | 127 | -62.6 | |||
| 2013-06-03T00:15 | 15251 | 124 | 255 | 35 | ||
| 2013-06-03T00:17 | 15674 | 116 | -64.3 | |||
| 2013-06-03T00:17 | 15812 | 113 | 275 | 23 | ||
| 2013-06-03T00:17 | 15934 | 111 | -66.1 | |||
| 2013-06-03T00:18 | 16112 | 108 | -66.3 | |||
| 2013-06-03T00:19 | 16326 | 104 | 259 | 21 | ||
| 2013-06-03T00:19 | 16571 | 100 | -69.4 | 255 | 23 | |
| 2013-06-03T00:20 | 16666 | 98 | -69.9 | |||
| 2013-06-03T00:21 | 17059 | 92 | -69.0 | |||
| 2013-06-03T00:21 | 17105 | 91 | 267 | 20 | ||
| 2013-06-03T00:22 | 17541 | 85 | 252 | 20 | ||
| 2013-06-03T00:22 | 17619 | 84 | -71.1 | |||
| 2013-06-03T00:23 | 17678 | 83 | 260 | 20 | ||
| 2013-06-03T00:23 | 17912 | 80 | -69.5 | |||
| 2013-06-03T00:23 | 17923 | 80 | 265 | 15 | ||
| 2013-06-03T00:24 | 18121 | 77 | -70.0 | |||
| 2013-06-03T00:24 | 18202 | 76 | -67.9 | |||
| 2013-06-03T00:24 | 18242 | 76 | 307 | 9 | ||
| 2013-06-03T00:24 | 18324 | 75 | -68.8 | |||
| 2013-06-03T00:24 | 18373 | 74 | 284 | 6 | ||
| 2013-06-03T00:25 | 18604 | 71 | 222 | 6 | ||
| 2013-06-03T00:25 | 18708 | 70 | 222 | 7 | ||
| 2013-06-03T00:26 | 18840 | 68 | -69.0 | |||
| 2013-06-03T00:26 | 18960 | 67 | 294 | 5 | ||
| 2013-06-03T00:26 | 19055 | 66 | -66.5 | |||
| 2013-06-03T00:27 | 19418 | 62 | -66.9 | |||
| 2013-06-03T00:28 | 19465 | 62 | 0 | 0 | ||
| 2013-06-03T00:28 | 19627 | 60 | -63.8 | |||
| 2013-06-03T00:29 | 19804 | 58 | -64.4 | |||
| 2013-06-03T00:29 | 19971 | 57 | -62.7 | |||
| 2013-06-03T00:29 | 19994 | 57 | 57 | 5 | ||
| 2013-06-03T00:30 | 20241 | 54 | -61.2 | |||
| 2013-06-03T00:30 | 20303 | 54 | 113 | 10 | ||
| 2013-06-03T00:30 | 20466 | 52 | -61.3 | 128 | 9 | |
| 2013-06-03T00:31 | 20637 | 51 | -59.6 | |||
| 2013-06-03T00:32 | 21107 | 47 | -57.5 | |||
| 2013-06-03T00:33 | 21365 | 45 | 99 | 13 | ||
| 2013-06-03T00:33 | 21580 | 44 | 113 | 17 | ||
| 2013-06-03T00:34 | 21774 | 43 | 129 | 14 | ||
| 2013-06-03T00:36 | 22526 | 38 | 125 | 14 | ||
| 2013-06-03T00:36 | 22664 | 37 | -55.6 | |||
| 2013-06-03T00:36 | 22766 | 36 | 140 | 13 | ||
| 2013-06-03T00:37 | 23007 | 35 | 136 | 8 | ||
| 2013-06-03T00:37 | 23094 | 35 | 122 | 6 | ||
| 2013-06-03T00:37 | 23146 | 34 | 112 | 7 | ||
| 2013-06-03T00:38 | 23430 | 33 | 99 | 8 | ||
| 2013-06-03T00:39 | 23622 | 32 | -53.8 | |||
| 2013-06-03T00:40 | 24182 | 29 | -50.6 | |||
| 2013-06-03T00:42 | 24740 | 27 | 109 | 11 | ||
| 2013-06-03T00:43 | 25293 | 25 | 101 | 17 | ||
| 2013-06-03T00:45 | 25985 | 22 | -48.4 | |||
| 2013-06-03T00:45 | 26228 | 21 | 124 | 16 | ||
| 2013-06-03T00:45 | 26255 | 21 | -49.1 | |||
| 2013-06-03T00:46 | 26584 | 20 | -47.0 | |||
| 2013-06-03T00:46 | 26618 | 20 | 103 | 11 | ||
| 2013-06-03T00:48 | 27186 | 19 | -46.8 | |||
| 2013-06-03T00:48 | 27417 | 18 | 86 | 16 | ||
| 2013-06-03T00:50 | 28140 | 16 | 91 | 22 | ||
| 2013-06-03T00:51 | 28420 | 15 | 113 | 22 | ||
| 2013-06-03T00:51 | 28719 | 15 | -40.7 | |||
| 2013-06-03T00:52 | 28882 | 14 | 100 | 18 | ||
| 2013-06-03T00:52 | 29155 | 14 | -42.0 | 113 | 19 | |
| 2013-06-03T11:30 | 18 | 1010 | 21.7 | 18.5 | 260 | 1 |
| 2013-06-03T11:30 | 151 | 995 | 20.0 | 17.4 | ||
| 2013-06-03T11:31 | 280 | 980 | 19.9 | 16.4 | ||
| 2013-06-03T11:31 | 316 | 976 | 20.4 | 15.8 | ||
| 2013-06-03T11:31 | 439 | 962 | 20.3 | 14.2 | ||
| 2013-06-03T11:31 | 449 | 961 | 80 | 5 | ||
| 2013-06-03T11:32 | 572 | 948 | 19.2 | 13.8 | ||
| 2013-06-03T11:32 | 583 | 946 | 84 | 6 | ||
| 2013-06-03T11:32 | 660 | 938 | 115 | 5 | ||
| 2013-06-03T11:32 | 828 | 920 | 18.0 | 13.9 | ||
| 2013-06-03T11:33 | 1069 | 894 | 16.0 | 13.7 | ||
| 2013-06-03T11:33 | 1191 | 882 | 127 | 6 | ||
| 2013-06-03T11:34 | 1204 | 880 | 15.2 | 12.7 | ||
| 2013-06-03T11:34 | 1282 | 872 | 135 | 5 | ||
| 2013-06-03T11:34 | 1379 | 862 | 15.2 | 10.2 | ||
| 2013-06-03T11:35 | 1581 | 842 | 13.4 | 10.6 | ||
| 2013-06-03T11:35 | 1639 | 836 | 13.1 | 9.2 | ||
| 2013-06-03T11:35 | 1822 | 818 | 11.5 | 9.2 | ||
| 2013-06-03T11:36 | 2071 | 794 | 11.5 | 4.5 | ||
| 2013-06-03T11:36 | 2096 | 792 | 70 | 6 | ||
| 2013-06-03T11:37 | 2250 | 777 | 73 | 7 | ||
| 2013-06-03T11:37 | 2323 | 771 | 10.2 | 0.5 | ||
| 2013-06-03T11:37 | 2385 | 765 | 10.2 | -0.9 | ||
| 2013-06-03T11:37 | 2433 | 760 | 11.3 | -7.5 | ||
| 2013-06-03T11:37 | 2456 | 758 | 11.3 | -10.3 | ||
| 2013-06-03T11:37 | 2497 | 755 | 39 | 7 | ||
| 2013-06-03T11:37 | 2521 | 752 | 11.4 | -20.4 | ||
| 2013-06-03T11:38 | 2691 | 737 | 46 | 7 | ||
| 2013-06-03T11:38 | 2877 | 721 | 33 | 8 | ||
| 2013-06-03T11:38 | 2900 | 719 | 8.2 | -20.6 | ||
| 2013-06-03T11:39 | 2991 | 711 | 34 | 6 | ||
| 2013-06-03T11:39 | 3016 | 709 | 7.7 | -22.1 | ||
| 2013-06-03T11:39 | 3151 | 697 | 6.8 | -22.8 | ||
| 2013-06-03T11:39 | 3160 | 696 | 1 | 6 | ||
| 2013-06-03T11:39 | 3199 | 693 | 6.5 | -14.3 | ||
| 2013-06-03T11:40 | 3346 | 681 | 9 | 5 | ||
| 2013-06-03T11:40 | 3500 | 668 | 3.6 | -13.7 | ||
| 2013-06-03T11:41 | 3676 | 654 | 2.5 | -18.8 | ||
| 2013-06-03T11:41 | 3843 | 640 | 1.2 | -18.7 | ||
| 2013-06-03T11:42 | 3980 | 629 | 0.8 | -21.5 | ||
| 2013-06-03T11:42 | 4092 | 621 | 295 | 5 | ||
| 2013-06-03T11:43 | 4314 | 604 | -2.3 | -21.7 | ||
| 2013-06-03T11:43 | 4429 | 595 | -1.9 | -34.9 | ||
| 2013-06-03T11:44 | 4673 | 577 | -1.9 | -51.5 | ||
| 2013-06-03T11:44 | 4710 | 574 | 0 | 0 | ||
| 2013-06-03T11:44 | 4893 | 561 | -3.6 | -46.6 | ||
| 2013-06-03T11:45 | 5281 | 534 | -5.7 | -53.9 | ||
| 2013-06-03T11:46 | 5539 | 517 | -7.7 | -49.3 | ||
| 2013-06-03T11:48 | 6217 | 473 | -13.9 | -41.2 | ||
| 2013-06-03T11:48 | 6371 | 464 | -14.3 | -53.8 | ||
| 2013-06-03T11:48 | 6396 | 462 | 294 | 5 | ||
| 2013-06-03T11:49 | 6477 | 457 | -14.7 | -48.1 | ||
| 2013-06-03T11:49 | 6618 | 449 | -15.9 | -45.4 | ||
| 2013-06-03T11:49 | 6699 | 444 | -16.3 | -36.3 | ||
| 2013-06-03T11:50 | 7024 | 425 | 314 | 8 | ||
| 2013-06-03T11:50 | 7140 | 418 | -20.4 | -36.6 | ||
| 2013-06-03T11:51 | 7349 | 407 | 275 | 11 | ||
| 2013-06-03T11:51 | 7482 | 399 | -22.9 | -36.8 | ||
| 2013-06-03T11:53 | 7914 | 376 | -26.3 | -50.9 | ||
| 2013-06-03T11:53 | 8077 | 368 | 274 | 17 | ||
| 2013-06-03T11:53 | 8146 | 364 | -28.2 | -48.8 | ||
| 2013-06-03T11:54 | 8219 | 361 | -28.3 | -48.9 | ||
| 2013-06-03T11:55 | 8588 | 343 | -31.7 | -48.2 | ||
| 2013-06-03T11:55 | 8709 | 337 | -32.4 | -48.3 | ||
| 2013-06-03T11:56 | 9029 | 322 | -35.4 | -47.8 | 248 | 14 |
| 2013-06-03T11:57 | 9418 | 304 | -38.2 | -54.7 | ||
| 2013-06-03T11:57 | 9437 | 303 | 268 | 18 | ||
| 2013-06-03T11:58 | 9612 | 296 | -39.3 | -50.6 | ||
| 2013-06-03T11:58 | 9701 | 292 | 267 | 15 | ||
| 2013-06-03T11:58 | 9724 | 291 | -40.0 | -51.0 | ||
| 2013-06-03T11:59 | 9985 | 280 | -41.3 | |||
| 2013-06-03T12:02 | 10841 | 246 | 262 | 25 | ||
| 2013-06-03T12:02 | 10893 | 244 | -49.2 | |||
| 2013-06-03T12:02 | 10927 | 243 | -49.0 | |||
| 2013-06-03T12:02 | 11049 | 239 | -46.4 | |||
| 2013-06-03T12:03 | 11173 | 234 | -47.1 | |||
| 2013-06-03T12:04 | 11409 | 226 | -46.8 | |||
| 2013-06-03T12:04 | 11485 | 223 | 248 | 39 | ||
| 2013-06-03T12:06 | 12090 | 204 | -48.5 | |||
| 2013-06-03T12:06 | 12129 | 203 | 253 | 47 | ||
| 2013-06-03T12:06 | 12241 | 199 | -48.2 | |||
| 2013-06-03T12:07 | 12365 | 195 | -49.0 | |||
| 2013-06-03T12:07 | 12577 | 189 | -48.8 | |||
| 2013-06-03T12:08 | 12783 | 183 | -50.5 | |||
| 2013-06-03T12:09 | 13234 | 171 | 262 | 41 | ||
| 2013-06-03T12:11 | 13638 | 161 | 254 | 35 | ||
| 2013-06-03T12:11 | 13752 | 158 | -55.4 | |||
| 2013-06-03T12:12 | 14072 | 150 | 245 | 39 | ||
| 2013-06-03T12:12 | 14106 | 149 | -58.5 | |||
| 2013-06-03T12:13 | 14396 | 142 | -59.4 | |||
| 2013-06-03T12:14 | 14701 | 136 | -61.5 | |||
| 2013-06-03T12:15 | 14906 | 131 | 264 | 36 | ||
| 2013-06-03T12:15 | 14970 | 130 | -61.1 | |||
| 2013-06-03T12:16 | 15164 | 126 | -62.2 | |||
| 2013-06-03T12:16 | 15279 | 124 | -61.9 | 253 | 27 | |
| 2013-06-03T12:17 | 15707 | 115 | -65.2 | |||
| 2013-06-03T12:18 | 15894 | 112 | -65.5 | |||
| 2013-06-03T12:18 | 16035 | 109 | 254 | 26 | ||
| 2013-06-03T12:19 | 16179 | 107 | -67.7 | |||
| 2013-06-03T12:19 | 16318 | 104 | -67.0 | |||
| 2013-06-03T12:19 | 16415 | 103 | -67.5 | |||
| 2013-06-03T12:20 | 16468 | 102 | -65.6 | |||
| 2013-06-03T12:20 | 16565 | 100 | -64.8 | 267 | 21 | |
| 2013-06-03T12:20 | 16751 | 97 | -64.4 | |||
| 2013-06-03T12:21 | 16941 | 94 | 237 | 16 | ||
| 2013-06-03T12:22 | 17251 | 89 | -67.7 | |||
| 2013-06-03T12:22 | 17380 | 87 | -66.9 | |||
| 2013-06-03T12:23 | 17658 | 84 | 256 | 15 | ||
| 2013-06-03T12:23 | 17806 | 82 | 262 | 11 | ||
| 2013-06-03T12:24 | 17953 | 80 | -68.5 | |||
| 2013-06-03T12:24 | 17998 | 79 | 242 | 6 | ||
| 2013-06-03T12:24 | 18090 | 78 | 229 | 7 | ||
| 2013-06-03T12:25 | 18220 | 76 | -68.2 | |||
| 2013-06-03T12:25 | 18360 | 74 | -69.3 | |||
| 2013-06-03T12:25 | 18382 | 74 | 239 | 11 | ||
| 2013-06-03T12:25 | 18488 | 73 | -67.5 | |||
| 2013-06-03T12:26 | 18654 | 71 | 262 | 7 | ||
| 2013-06-03T12:26 | 18885 | 68 | -67.2 | 207 | 5 | |
| 2013-06-03T12:27 | 18980 | 67 | 212 | 6 | ||
| 2013-06-03T12:27 | 19127 | 65 | -65.7 | |||
| 2013-06-03T12:27 | 19139 | 65 | 251 | 5 | ||
| 2013-06-03T12:27 | 19174 | 65 | -64.5 | |||
| 2013-06-03T12:27 | 19255 | 64 | 247 | 2 | ||
| 2013-06-03T12:28 | 19304 | 64 | -63.5 | |||
| 2013-06-03T12:28 | 19392 | 63 | 221 | 5 | ||
| 2013-06-03T12:28 | 19428 | 62 | -64.3 | |||
| 2013-06-03T12:28 | 19508 | 61 | 230 | 5 | ||
| 2013-06-03T12:29 | 19659 | 60 | -62.0 | |||
| 2013-06-03T12:29 | 19758 | 59 | -62.4 | |||
| 2013-06-03T12:29 | 19803 | 59 | 212 | 5 | ||
| 2013-06-03T12:29 | 19849 | 58 | -60.4 | |||
| 2013-06-03T12:30 | 20321 | 54 | 79 | 5 | ||
| 2013-06-03T12:31 | 20403 | 53 | -60.0 | |||
| 2013-06-03T12:31 | 20556 | 52 | 124 | 5 | ||
| 2013-06-03T12:32 | 20723 | 51 | -58.5 | |||
| 2013-06-03T12:32 | 21002 | 48 | -59.2 | |||
| 2013-06-03T12:33 | 21191 | 47 | 106 | 7 | ||
| 2013-06-03T12:33 | 21349 | 46 | 121 | 5 | ||
| 2013-06-03T12:34 | 21469 | 45 | -55.8 | |||
| 2013-06-03T12:34 | 21546 | 44 | 110 | 5 | ||
| 2013-06-03T12:34 | 21705 | 43 | 83 | 9 | ||
| 2013-06-03T12:35 | 22026 | 41 | -56.9 | |||
| 2013-06-03T12:35 | 22061 | 41 | 112 | 8 | ||
| 2013-06-03T12:36 | 22234 | 40 | 77 | 6 | ||
| 2013-06-03T12:36 | 22415 | 39 | 96 | 7 | ||
| 2013-06-03T12:37 | 22595 | 38 | 72 | 8 | ||
| 2013-06-03T12:38 | 22906 | 36 | -55.1 | |||
| 2013-06-03T12:38 | 23214 | 34 | 106 | 12 | ||
| 2013-06-03T12:40 | 23741 | 32 | -51.3 | |||
| 2013-06-03T12:41 | 24081 | 30 | 89 | 11 | ||
| 2013-06-03T12:42 | 24423 | 28 | 107 | 14 | ||
| 2013-06-03T12:42 | 24448 | 28 | -51.5 | |||
| 2013-06-03T12:43 | 24936 | 26 | -50.7 | |||
| 2013-06-03T12:43 | 25092 | 26 | -49.1 | |||
| 2013-06-03T12:44 | 25449 | 24 | 91 | 16 | ||
| 2013-06-03T12:46 | 26087 | 22 | -47.5 | 105 | 16 | |
| 2013-06-03T23:30 | 18 | 1014 | 25.0 | 17.5 | 10 | 1 |
| 2013-06-03T23:31 | 217 | 991 | 21.7 | 14.8 | ||
| 2013-06-03T23:31 | 295 | 982 | 21.1 | 14.5 | ||
| 2013-06-03T23:31 | 350 | 976 | 21.3 | 13.7 | ||
| 2013-06-03T23:32 | 547 | 954 | 19.8 | 13.0 | ||
| 2013-06-03T23:32 | 592 | 949 | 20.0 | 13.0 | ||
| 2013-06-03T23:32 | 793 | 927 | 18.3 | 12.3 | ||
| 2013-06-03T23:33 | 872 | 919 | 18.2 | 11.8 | ||
| 2013-06-03T23:33 | 1130 | 892 | 16.0 | 11.2 | ||
| 2013-06-03T23:34 | 1248 | 879 | 15.6 | 9.0 | ||
| 2013-06-03T23:34 | 1308 | 873 | 124 | 5 | ||
| 2013-06-03T23:35 | 1579 | 846 | 13.0 | 8.7 | ||
| 2013-06-03T23:35 | 1677 | 836 | 12.5 | 8.2 | ||
| 2013-06-03T23:35 | 1788 | 825 | 12.2 | 6.0 | ||
| 2013-06-03T23:37 | 2402 | 766 | 7.0 | 2.1 | ||
| 2013-06-03T23:37 | 2479 | 759 | 7.5 | -1.5 | ||
| 2013-06-03T23:37 | 2503 | 757 | 90 | 6 | ||
| 2013-06-03T23:38 | 2618 | 746 | 7.0 | -3.5 | ||
| 2013-06-03T23:38 | 2737 | 735 | 7.3 | -14.2 | ||
| 2013-06-03T23:39 | 2987 | 713 | 6.5 | -30.6 | ||
| 2013-06-03T23:39 | 2998 | 712 | 33 | 7 | ||
| 2013-06-03T23:39 | 3225 | 693 | 4.4 | -30.2 | ||
| 2013-06-03T23:40 | 3346 | 683 | 3.8 | -23.1 | ||
| 2013-06-03T23:40 | 3356 | 682 | 33 | 5 | ||
| 2013-06-03T23:42 | 3967 | 632 | -2.0 | -20.4 | ||
| 2013-06-03T23:42 | 4069 | 624 | -2.8 | -22.7 | ||
| 2013-06-03T23:42 | 4118 | 620 | -2.5 | -29.0 | ||
| 2013-06-03T23:42 | 4225 | 612 | -2.4 | -35.2 | ||
| 2013-06-03T23:43 | 4301 | 606 | -2.4 | -42.0 | ||
| 2013-06-03T23:43 | 4505 | 590 | -3.7 | -40.2 | ||
| 2013-06-03T23:44 | 4796 | 569 | -4.6 | -47.2 | ||
| 2013-06-03T23:44 | 4953 | 558 | 310 | 3 | ||
| 2013-06-03T23:44 | 4991 | 555 | -5.6 | -47.9 | ||
| 2013-06-03T23:45 | 5078 | 549 | 291 | 6 | ||
| 2013-06-03T23:45 | 5301 | 533 | -7.9 | -43.2 | ||
| 2013-06-03T23:46 | 5450 | 523 | -9.4 | -40.5 | ||
| 2013-06-03T23:46 | 5535 | 517 | 280 | 6 | ||
| 2013-06-03T23:46 | 5572 | 515 | -10.4 | -35.3 | ||
| 2013-06-03T23:46 | 5695 | 507 | -10.8 | -33.9 | ||
| 2013-06-03T23:46 | 5704 | 506 | 310 | 7 | ||
| 2013-06-03T23:47 | 5879 | 495 | -12.4 | -31.9 | ||
| 2013-06-03T23:47 | 6032 | 485 | -13.1 | -34.3 | ||
| 2013-06-03T23:49 | 6450 | 459 | -16.6 | -34.9 | ||
| 2013-06-03T23:49 | 6608 | 449 | 242 | 9 | ||
| 2013-06-03T23:49 | 6648 | 447 | -18.5 | -37.0 | ||
| 2013-06-03T23:50 | 6743 | 441 | -19.0 | -44.1 | ||
| 2013-06-03T23:50 | 6849 | 435 | 259 | 8 | ||
| 2013-06-03T23:50 | 7058 | 423 | -21.3 | -49.5 | ||
| 2013-06-03T23:51 | 7137 | 418 | 235 | 12 | ||
| 2013-06-03T23:51 | 7224 | 413 | -22.8 | -41.2 | ||
| 2013-06-03T23:52 | 7527 | 397 | -25.2 | -43.8 | ||
| 2013-06-03T23:53 | 7790 | 382 | -26.7 | -48.4 | ||
| 2013-06-03T23:56 | 8836 | 330 | -35.7 | -55.0 | ||
| 2013-06-03T23:56 | 8919 | 326 | -36.2 | -52.5 | ||
| 2013-06-03T23:56 | 8957 | 324 | 234 | 17 | ||
| 2013-06-03T23:57 | 9257 | 310 | -38.1 | -61.2 | ||
| 2013-06-03T23:57 | 9349 | 306 | -38.7 | -58.2 | ||
| 2013-06-03T23:57 | 9419 | 303 | -39.4 | -50.4 | ||
| 2013-06-03T23:58 | 9501 | 300 | -40.0 | -48.2 | ||
| 2013-06-03T23:58 | 9592 | 296 | -40.4 | |||
| 2013-06-03T23:58 | 9613 | 295 | 247 | 17 | ||
| 2013-06-04T00:00 | 10235 | 269 | -46.6 | |||
| 2013-06-04T00:00 | 10431 | 261 | -47.9 | |||
| 2013-06-04T00:01 | 10474 | 259 | 254 | 13 | ||
| 2013-06-04T00:01 | 10649 | 252 | -47.7 | |||
| 2013-06-04T00:01 | 10780 | 247 | -48.5 | |||
| 2013-06-04T00:02 | 10802 | 247 | 255 | 23 | ||
| 2013-06-04T00:02 | 10842 | 245 | -48.0 | |||
| 2013-06-04T00:03 | 11308 | 228 | 250 | 21 | ||
| 2013-06-04T00:03 | 11340 | 227 | -51.0 | |||
| 2013-06-04T00:05 | 11834 | 210 | -52.3 | |||
| 2013-06-04T00:05 | 11953 | 207 | 250 | 34 | ||
| 2013-06-04T00:05 | 11985 | 206 | -53.3 | |||
| 2013-06-04T00:06 | 12194 | 199 | -52.3 | |||
| 2013-06-04T00:07 | 12532 | 189 | -53.4 | |||
| 2013-06-04T00:07 | 12623 | 186 | -53.0 | |||
| 2013-06-04T00:09 | 13094 | 173 | -53.7 | |||
| 2013-06-04T00:09 | 13301 | 168 | 252 | 44 | ||
| 2013-06-04T00:10 | 13467 | 163 | -55.6 | |||
| 2013-06-04T00:11 | 13881 | 153 | -56.9 | |||
| 2013-06-04T00:11 | 13978 | 151 | -56.2 | |||
| 2013-06-04T00:12 | 14112 | 148 | 253 | 34 | ||
| 2013-06-04T00:12 | 14143 | 147 | -56.6 | |||
| 2013-06-04T00:13 | 14427 | 140 | -58.6 | |||
| 2013-06-04T00:14 | 14792 | 132 | -59.0 | |||
| 2013-06-04T00:15 | 14964 | 129 | 245 | 37 | ||
| 2013-06-04T00:15 | 15086 | 126 | -60.7 | |||
| 2013-06-04T00:16 | 15427 | 120 | -62.0 | |||
| 2013-06-04T00:16 | 15548 | 117 | -61.4 | |||
| 2013-06-04T00:17 | 15625 | 116 | 241 | 24 | ||
| 2013-06-04T00:19 | 16312 | 104 | 267 | 23 | ||
| 2013-06-04T00:19 | 16521 | 100 | -66.2 | 261 | 16 | |
| 2013-06-04T00:20 | 16828 | 95 | -66.7 | |||
| 2013-06-04T00:20 | 16840 | 95 | 237 | 15 | ||
| 2013-06-04T00:21 | 16947 | 93 | -67.6 | |||
| 2013-06-04T00:21 | 16992 | 93 | 246 | 18 | ||
| 2013-06-04T00:21 | 17068 | 91 | -65.8 | |||
| 2013-06-04T00:21 | 17243 | 89 | -65.4 | |||
| 2013-06-04T00:22 | 17429 | 86 | 225 | 15 | ||
| 2013-06-04T00:22 | 17553 | 84 | -67.0 | |||
| 2013-06-04T00:23 | 17717 | 82 | -66.0 | |||
| 2013-06-04T00:23 | 17780 | 81 | 264 | 13 | ||
| 2013-06-04T00:24 | 17974 | 79 | -66.3 | |||
| 2013-06-04T00:24 | 17996 | 78 | 256 | 12 | ||
| 2013-06-04T00:24 | 18129 | 77 | -65.0 | |||
| 2013-06-04T00:24 | 18265 | 75 | -65.5 | |||
| 2013-06-04T00:25 | 18331 | 74 | 316 | 5 | ||
| 2013-06-04T00:25 | 18387 | 74 | -64.5 | |||
| 2013-06-04T00:26 | 18679 | 70 | -66.3 | |||
| 2013-06-04T00:26 | 18828 | 68 | -65.1 | |||
| 2013-06-04T00:26 | 18901 | 68 | 205 | 1 | ||
| 2013-06-04T00:27 | 19160 | 65 | -64.8 | |||
| 2013-06-04T00:27 | 19288 | 63 | -62.6 | |||
| 2013-06-04T00:28 | 19372 | 63 | -62.8 | |||
| 2013-06-04T00:28 | 19445 | 62 | -61.6 | |||
| 2013-06-04T00:28 | 19670 | 60 | 144 | 5 | ||
| 2013-06-04T00:29 | 19797 | 58 | 161 | 6 | ||
| 2013-06-04T00:29 | 19867 | 58 | -61.0 | |||
| 2013-06-04T00:29 | 19970 | 57 | -59.4 | |||
| 2013-06-04T00:30 | 20234 | 55 | 148 | 2 | ||
| 2013-06-04T00:30 | 20271 | 54 | -58.5 | |||
| 2013-06-04T00:30 | 20341 | 54 | 105 | 5 | ||
| 2013-06-04T00:31 | 20524 | 52 | 104 | 8 | ||
| 2013-06-04T00:31 | 20714 | 51 | 126 | 7 | ||
| 2013-06-04T00:33 | 21102 | 47 | 108 | 8 | ||
| 2013-06-04T00:33 | 21288 | 46 | 117 | 12 | ||
| 2013-06-04T00:34 | 21458 | 45 | -57.4 | |||
| 2013-06-04T00:34 | 21481 | 45 | 134 | 9 | ||
| 2013-06-04T00:34 | 21647 | 44 | 114 | 9 | ||
| 2013-06-04T00:35 | 21828 | 42 | 128 | 11 | ||
| 2013-06-04T00:35 | 22125 | 40 | -54.7 | 122 | 8 | |
| 2013-06-04T11:30 | 18 | 1014 | 22.5 | 19.5 | 330 | 3 |
| 2013-06-04T11:30 | 47 | 1011 | 21.7 | 18.7 | ||
| 2013-06-04T11:30 | 202 | 993 | 20.1 | 18.6 | ||
| 2013-06-04T11:31 | 245 | 988 | 20.7 | 17.5 | ||
| 2013-06-04T11:31 | 312 | 980 | 20.8 | 18.0 | ||
| 2013-06-04T11:31 | 382 | 972 | 21.9 | 16.2 | ||
| 2013-06-04T11:31 | 429 | 967 | 22.0 | 15.8 | ||
| 2013-06-04T11:32 | 659 | 942 | 20.3 | 14.0 | ||
| 2013-06-04T11:32 | 810 | 926 | 19.9 | 12.4 | ||
| 2013-06-04T11:32 | 850 | 921 | 20.3 | 12.5 | ||
| 2013-06-04T11:33 | 945 | 911 | 19.8 | 13.3 | ||
| 2013-06-04T11:34 | 1365 | 868 | 15.9 | 12.6 | ||
| 2013-06-04T11:35 | 1597 | 844 | 14.7 | 10.9 | ||
| 2013-06-04T11:35 | 1873 | 817 | 0 | 0 | ||
| 2013-06-04T11:36 | 2009 | 804 | 11.1 | 9.9 | ||
| 2013-06-04T11:36 | 2246 | 782 | 9.1 | 8.3 | ||
| 2013-06-04T11:37 | 2400 | 767 | 8.0 | 7.2 | ||
| 2013-06-04T11:37 | 2531 | 755 | 7.4 | 5.2 | ||
| 2013-06-04T11:38 | 2675 | 742 | 6.1 | 4.4 | ||
| 2013-06-04T11:38 | 2781 | 732 | 6.1 | 1.0 | ||
| 2013-06-04T11:39 | 3047 | 709 | 4.1 | -1.5 | ||
| 2013-06-04T11:39 | 3093 | 705 | 4.1 | -6.5 | ||
| 2013-06-04T11:39 | 3137 | 701 | 3.8 | -6.5 | ||
| 2013-06-04T11:39 | 3157 | 699 | 0 | 0 | ||
| 2013-06-04T11:39 | 3180 | 698 | 4.3 | -12.2 | ||
| 2013-06-04T11:39 | 3228 | 693 | 4.3 | -15.6 | ||
| 2013-06-04T11:40 | 3302 | 687 | 4.4 | -20.8 | ||
| 2013-06-04T11:40 | 3338 | 684 | 57 | 6 | ||
| 2013-06-04T11:40 | 3572 | 665 | 2.6 | -29.9 | ||
| 2013-06-04T11:41 | 3718 | 653 | 1.6 | -23.9 | ||
| 2013-06-04T11:41 | 3882 | 639 | 1.4 | -34.3 | ||
| 2013-06-04T11:42 | 4089 | 623 | 0.0 | -33.4 | ||
| 2013-06-04T11:42 | 4215 | 613 | 0.2 | -27.9 | ||
| 2013-06-04T11:43 | 4470 | 594 | -1.2 | -25.3 | ||
| 2013-06-04T11:44 | 4746 | 574 | -2.9 | -30.3 | ||
| 2013-06-04T11:44 | 4906 | 562 | -4.1 | -31.3 | ||
| 2013-06-04T11:44 | 4985 | 557 | -4.8 | -24.9 | ||
| 2013-06-04T11:45 | 5161 | 544 | -6.3 | -25.6 | ||
| 2013-06-04T11:45 | 5207 | 541 | -6.1 | -36.5 | ||
| 2013-06-04T11:46 | 5396 | 528 | -6.9 | -40.4 | ||
| 2013-06-04T11:46 | 5612 | 514 | -9.1 | -36.3 | ||
| 2013-06-04T11:47 | 5875 | 497 | 293 | 3 | ||
| 2013-06-04T11:47 | 5977 | 490 | 294 | 5 | ||
| 2013-06-04T11:47 | 6089 | 483 | 307 | 6 | ||
| 2013-06-04T11:49 | 6693 | 446 | 279 | 9 | ||
| 2013-06-04T11:49 | 6713 | 444 | -18.1 | -39.9 | ||
| 2013-06-04T11:50 | 6898 | 434 | -19.3 | -42.4 | ||
| 2013-06-04T11:50 | 6975 | 429 | -19.4 | -45.4 | ||
| 2013-06-04T11:50 | 7056 | 424 | -20.0 | -39.4 | ||
| 2013-06-04T11:51 | 7390 | 406 | -23.1 | -39.4 | ||
| 2013-06-04T11:52 | 7514 | 399 | -24.3 | -38.0 | ||
| 2013-06-04T11:52 | 7574 | 396 | -24.6 | -40.7 | ||
| 2013-06-04T11:52 | 7753 | 386 | -26.1 | -41.5 | ||
| 2013-06-04T11:52 | 7786 | 384 | -25.9 | -47.0 | 281 | 13 |
| 2013-06-04T11:53 | 7925 | 377 | -26.8 | -51.3 | ||
| 2013-06-04T11:53 | 8028 | 371 | -27.6 | -42.0 | ||
| 2013-06-04T11:54 | 8206 | 362 | -28.9 | -39.6 | ||
| 2013-06-04T11:54 | 8269 | 359 | -29.3 | -42.8 | ||
| 2013-06-04T11:54 | 8306 | 357 | 264 | 15 | ||
| 2013-06-04T11:54 | 8316 | 357 | -29.7 | -40.6 | ||
| 2013-06-04T11:54 | 8419 | 352 | -30.4 | -40.7 | ||
| 2013-06-04T11:55 | 8576 | 344 | 271 | 16 | ||
| 2013-06-04T11:55 | 8699 | 338 | -32.3 | -44.4 | ||
| 2013-06-04T11:56 | 8899 | 329 | -33.0 | -48.8 | ||
| 2013-06-04T11:56 | 9054 | 321 | -34.4 | -51.0 | ||
| 2013-06-04T11:56 | 9208 | 314 | -35.3 | -54.0 | ||
| 2013-06-04T11:57 | 9284 | 311 | -34.8 | -56.6 | ||
| 2013-06-04T11:57 | 9516 | 301 | -36.3 | -51.6 | ||
| 2013-06-04T11:58 | 9679 | 294 | -37.3 | -42.1 | ||
| 2013-06-04T11:58 | 9736 | 291 | -37.8 | -41.4 | ||
| 2013-06-04T11:59 | 10015 | 280 | -39.5 | -42.0 | ||
| 2013-06-04T11:59 | 10089 | 277 | -40.0 | -43.2 | ||
| 2013-06-04T12:01 | 10532 | 259 | -42.9 | 268 | 48 | |
| 2013-06-04T12:03 | 11407 | 227 | -50.5 | |||
| 2013-06-04T12:06 | 12225 | 200 | 259 | 59 | ||
| 2013-06-04T12:06 | 12327 | 197 | -58.2 | |||
| 2013-06-04T12:08 | 12897 | 180 | -61.7 | |||
| 2013-06-04T12:08 | 13028 | 176 | -60.9 | |||
| 2013-06-04T12:08 | 13085 | 174 | -59.7 | |||
| 2013-06-04T12:09 | 13224 | 170 | -60.2 | |||
| 2013-06-04T12:09 | 13329 | 168 | -59.5 | |||
| 2013-06-04T12:10 | 13618 | 160 | -60.8 | |||
| 2013-06-04T12:11 | 13797 | 156 | -61.0 | |||
| 2013-06-04T12:11 | 14074 | 149 | -59.6 | |||
| 2013-06-04T12:12 | 14153 | 147 | -60.0 | |||
| 2013-06-04T12:12 | 14220 | 145 | -59.1 | |||
| 2013-06-04T12:12 | 14359 | 142 | 267 | 30 | ||
| 2013-06-04T12:13 | 14736 | 134 | -60.4 | |||
| 2013-06-04T12:14 | 14809 | 132 | -59.8 | 258 | 26 | |
| 2013-06-04T12:15 | 15136 | 126 | -60.2 | |||
| 2013-06-04T12:15 | 15390 | 120 | -61.6 | |||
| 2013-06-04T12:16 | 15432 | 120 | 250 | 30 | ||
| 2013-06-04T12:16 | 15722 | 114 | -61.2 | |||
| 2013-06-04T12:17 | 15913 | 111 | 261 | 18 | ||
| 2013-06-04T12:17 | 16033 | 109 | -62.5 | |||
| 2013-06-04T12:18 | 16166 | 106 | 244 | 19 | ||
| 2013-06-04T12:19 | 16540 | 100 | -61.7 | 259 | 16 | |
| 2013-06-04T12:20 | 16832 | 95 | -61.9 | |||
| 2013-06-04T12:20 | 17094 | 91 | -63.1 | |||
| 2013-06-04T12:22 | 17620 | 84 | 273 | 12 | ||
| 2013-06-04T12:22 | 17664 | 83 | -67.9 | |||
| 2013-06-04T12:22 | 17815 | 81 | -68.1 | |||
| 2013-06-04T12:23 | 17978 | 79 | -67.5 | |||
| 2013-06-04T12:23 | 18014 | 79 | -66.1 | |||
| 2013-06-04T12:23 | 18071 | 78 | 226 | 8 | ||
| 2013-06-04T12:23 | 18131 | 77 | -66.4 | |||
| 2013-06-04T12:24 | 18238 | 76 | 235 | 10 | ||
| 2013-06-04T12:24 | 18435 | 73 | 273 | 8 | ||
| 2013-06-04T12:24 | 18482 | 73 | -62.7 | |||
| 2013-06-04T12:25 | 18605 | 71 | -63.7 | |||
| 2013-06-04T12:25 | 18717 | 70 | 245 | 7 | ||
| 2013-06-04T12:25 | 18783 | 69 | -63.1 | |||
| 2013-06-04T12:25 | 18875 | 68 | -61.3 | |||
| 2013-06-04T12:26 | 19158 | 65 | -63.0 | 273 | 8 | |
| 2013-06-04T12:26 | 19227 | 64 | 283 | 7 | ||
| 2013-06-04T12:27 | 19318 | 64 | -63.0 | |||
| 2013-06-04T12:27 | 19340 | 63 | 323 | 5 | ||
| 2013-06-04T12:27 | 19445 | 62 | -61.6 | |||
| 2013-06-04T12:28 | 19587 | 61 | -62.0 | |||
| 2013-06-04T12:28 | 19598 | 61 | 0 | 0 | ||
| 2013-06-04T12:28 | 19675 | 60 | -60.6 | |||
| 2013-06-04T12:29 | 20011 | 57 | -59.4 | |||
| 2013-06-04T12:30 | 20404 | 53 | -60.6 | |||
| 2013-06-04T12:31 | 20862 | 50 | -56.8 | |||
| 2013-06-04T12:33 | 21372 | 46 | 77 | 7 | ||
| 2013-06-04T12:33 | 21639 | 44 | 124 | 6 | ||
| 2013-06-04T12:34 | 21980 | 42 | 94 | 9 | ||
| 2013-06-04T12:36 | 22503 | 38 | 113 | 11 | ||
| 2013-06-04T12:36 | 22668 | 37 | -53.1 | |||
| 2013-06-04T12:37 | 22907 | 36 | 72 | 8 | ||
| 2013-06-04T12:39 | 23459 | 33 | -52.9 | |||
| 2013-06-04T12:39 | 23594 | 32 | 103 | 8 | ||
| 2013-06-04T12:40 | 23857 | 31 | 79 | 9 | ||
| 2013-06-04T12:40 | 24115 | 30 | 97 | 10 | ||
| 2013-06-04T12:41 | 24393 | 29 | 71 | 11 | ||
| 2013-06-04T12:41 | 24416 | 29 | -49.0 | |||
| 2013-06-04T12:42 | 24656 | 28 | 94 | 12 | ||
| 2013-06-04T12:43 | 25148 | 26 | 76 | 10 | ||
| 2013-06-04T12:44 | 25501 | 24 | 90 | 12 | ||
| 2013-06-04T12:44 | 25648 | 24 | -51.6 | |||
| 2013-06-04T12:45 | 25796 | 23 | 71 | 11 | ||
| 2013-06-04T12:46 | 26098 | 22 | -51.5 | |||
| 2013-06-04T12:46 | 26187 | 22 | 93 | 15 | ||
| 2013-06-04T12:47 | 26785 | 20 | -47.9 | |||
| 2013-06-04T12:48 | 27003 | 19 | -45.2 | |||
| 2013-06-04T12:48 | 27016 | 19 | 70 | 16 | ||
| 2013-06-04T12:49 | 27324 | 18 | -46.4 | |||
| 2013-06-04T12:49 | 27349 | 18 | 80 | 15 | ||
| 2013-06-04T12:49 | 27525 | 18 | 96 | 18 | ||
| 2013-06-04T12:50 | 27708 | 17 | 112 | 16 | ||
| 2013-06-04T12:50 | 27769 | 17 | -43.3 | |||
| 2013-06-04T12:51 | 28056 | 16 | 117 | 12 | ||
| 2013-06-04T12:51 | 28316 | 16 | 89 | 13 | ||
| 2013-06-04T12:51 | 28389 | 16 | -44.8 | |||
| 2013-06-04T12:52 | 28555 | 15 | 81 | 10 | ||
| 2013-06-04T12:53 | 28906 | 14 | 96 | 17 | ||
| 2013-06-04T12:54 | 29269 | 14 | 107 | 8 | ||
| 2013-06-04T12:54 | 29363 | 14 | 98 | 7 | ||
| 2013-06-04T12:54 | 29560 | 13 | 65 | 10 | ||
| 2013-06-04T12:56 | 30044 | 12 | -43.6 | 71 | 13 | |
| 2013-06-04T23:30 | 18 | 1016 | 23.2 | 16.0 | 30 | 1 |
| 2013-06-04T23:30 | 62 | 1011 | 22.1 | 14.5 | ||
| 2013-06-04T23:31 | 345 | 978 | 19.6 | 13.3 | ||
| 2013-06-04T23:31 | 391 | 973 | 19.7 | 12.2 | ||
| 2013-06-04T23:31 | 401 | 972 | 20.2 | 11.7 | ||
| 2013-06-04T23:31 | 423 | 969 | 20.2 | 13.4 | ||
| 2013-06-04T23:31 | 443 | 967 | 20.4 | 14.8 | ||
| 2013-06-04T23:31 | 465 | 965 | 21.1 | 10.3 | ||
| 2013-06-04T23:31 | 500 | 961 | 21.4 | 6.5 | ||
| 2013-06-04T23:32 | 613 | 948 | 21.1 | 5.9 | ||
| 2013-06-04T23:33 | 918 | 915 | 18.2 | 9.3 | ||
| 2013-06-04T23:33 | 1075 | 899 | 106 | 5 | ||
| 2013-06-04T23:33 | 1133 | 893 | 17.1 | 10.7 | ||
| 2013-06-04T23:33 | 1191 | 886 | 17.1 | 9.0 | ||
| 2013-06-04T23:34 | 1284 | 877 | 114 | 5 | ||
| 2013-06-04T23:34 | 1295 | 876 | 17.3 | -1.9 | ||
| 2013-06-04T23:34 | 1371 | 868 | 16.6 | -1.0 | ||
| 2013-06-04T23:34 | 1466 | 858 | 108 | 5 | ||
| 2013-06-04T23:34 | 1479 | 857 | 15.4 | 5.3 | ||
| 2013-06-04T23:35 | 1622 | 843 | 13.9 | 6.0 | ||
| 2013-06-04T23:35 | 1714 | 833 | 13.6 | 3.1 | ||
| 2013-06-04T23:35 | 1817 | 823 | 61 | 5 | ||
| 2013-06-04T23:35 | 1840 | 821 | 12.6 | 2.2 | ||
| 2013-06-04T23:36 | 2009 | 805 | 11.4 | -3.9 | ||
| 2013-06-04T23:36 | 2166 | 790 | 10.3 | -4.1 | ||
| 2013-06-04T23:37 | 2335 | 774 | 8.8 | 0.3 | ||
| 2013-06-04T23:37 | 2482 | 760 | 7.7 | 0.4 | ||
| 2013-06-04T23:37 | 2518 | 757 | 7.7 | -0.3 | ||
| 2013-06-04T23:38 | 2583 | 751 | 8.5 | -8.5 | ||
| 2013-06-04T23:38 | 2664 | 743 | 8.0 | -8.1 | ||
| 2013-06-04T23:38 | 2735 | 737 | 7.7 | -12.1 | ||
| 2013-06-04T23:38 | 2761 | 735 | 7.9 | -20.8 | ||
| 2013-06-04T23:38 | 2839 | 728 | 66 | 10 | ||
| 2013-06-04T23:38 | 2884 | 724 | 7.1 | -14.4 | ||
| 2013-06-04T23:39 | 3048 | 710 | 6.0 | -20.4 | ||
| 2013-06-04T23:39 | 3117 | 704 | 5.5 | -19.9 | ||
| 2013-06-04T23:39 | 3218 | 695 | 4.6 | -11.1 | ||
| 2013-06-04T23:40 | 3250 | 692 | 80 | 7 | ||
| 2013-06-04T23:40 | 3393 | 680 | 3.6 | -20.7 | ||
| 2013-06-04T23:40 | 3449 | 675 | 4.1 | -32.3 | ||
| 2013-06-04T23:40 | 3469 | 674 | 4.3 | -27.2 | ||
| 2013-06-04T23:40 | 3480 | 673 | 39 | 6 | ||
| 2013-06-04T23:41 | 3690 | 656 | 4.2 | -27.2 | ||
| 2013-06-04T23:42 | 4157 | 619 | 0.3 | -27.8 | ||
| 2013-06-04T23:43 | 4274 | 610 | -0.5 | -26.5 | ||
| 2013-06-04T23:43 | 4374 | 602 | -0.5 | -28.5 | ||
| 2013-06-04T23:43 | 4517 | 592 | 0 | 0 | ||
| 2013-06-04T23:44 | 4651 | 582 | -2.6 | -30.1 | ||
| 2013-06-04T23:44 | 4850 | 567 | -3.3 | -27.9 | ||
| 2013-06-04T23:45 | 5155 | 546 | -5.1 | -33.2 | ||
| 2013-06-04T23:46 | 5273 | 538 | -6.0 | -25.9 | ||
| 2013-06-04T23:47 | 5666 | 511 | -9.2 | -35.3 | ||
| 2013-06-04T23:48 | 5929 | 494 | -11.5 | -37.1 | ||
| 2013-06-04T23:48 | 6058 | 486 | -12.1 | -30.0 | ||
| 2013-06-04T23:48 | 6154 | 479 | 301 | 8 | ||
| 2013-06-04T23:48 | 6179 | 478 | -13.2 | -31.0 | ||
| 2013-06-04T23:48 | 6225 | 475 | -13.4 | -35.3 | ||
| 2013-06-04T23:49 | 6327 | 469 | -14.3 | -37.6 | ||
| 2013-06-04T23:49 | 6388 | 465 | 316 | 7 | ||
| 2013-06-04T23:50 | 6607 | 452 | -15.7 | -37.2 | ||
| 2013-06-04T23:50 | 6655 | 449 | 303 | 5 | ||
| 2013-06-04T23:50 | 6668 | 448 | -15.8 | -39.6 | ||
| 2013-06-04T23:50 | 6775 | 442 | 329 | 7 | ||
| 2013-06-04T23:50 | 6892 | 435 | -17.9 | -45.5 | ||
| 2013-06-04T23:51 | 7072 | 424 | 336 | 6 | ||
| 2013-06-04T23:51 | 7186 | 418 | -18.5 | -56.7 | ||
| 2013-06-04T23:52 | 7395 | 406 | -20.1 | -57.8 | ||
| 2013-06-04T23:52 | 7462 | 403 | 237 | 5 | ||
| 2013-06-04T23:52 | 7536 | 399 | -20.4 | -58.0 | ||
| 2013-06-04T23:52 | 7566 | 397 | 231 | 6 | ||
| 2013-06-04T23:52 | 7627 | 394 | -21.1 | -58.5 | ||
| 2013-06-04T23:52 | 7683 | 391 | -20.7 | -58.2 | ||
| 2013-06-04T23:53 | 7831 | 383 | 251 | 5 | ||
| 2013-06-04T23:53 | 8118 | 368 | 273 | 3 | ||
| 2013-06-04T23:53 | 8133 | 368 | -24.6 | -57.7 | ||
| 2013-06-04T23:54 | 8248 | 362 | 315 | 5 | ||
| 2013-06-04T23:54 | 8259 | 361 | -25.1 | -58.1 | ||
| 2013-06-04T23:54 | 8489 | 350 | 314 | 7 | ||
| 2013-06-04T23:55 | 8609 | 344 | 290 | 6 | ||
| 2013-06-04T23:55 | 8787 | 336 | 298 | 6 | ||
| 2013-06-04T23:55 | 8870 | 332 | -30.7 | -58.2 | ||
| 2013-06-04T23:55 | 8981 | 327 | 284 | 9 | ||
| 2013-06-04T23:56 | 9005 | 326 | -32.0 | -52.0 | ||
| 2013-06-04T23:56 | 9089 | 322 | -31.2 | -38.0 | ||
| 2013-06-04T23:56 | 9153 | 319 | -31.5 | -37.2 | ||
| 2013-06-04T23:56 | 9176 | 318 | 256 | 17 | ||
| 2013-06-04T23:56 | 9197 | 317 | -30.9 | -36.0 | ||
| 2013-06-04T23:56 | 9328 | 311 | -32.0 | -36.7 | ||
| 2013-06-04T23:57 | 9380 | 309 | -32.0 | -37.0 | ||
| 2013-06-04T23:57 | 9393 | 308 | 248 | 24 | ||
| 2013-06-04T23:57 | 9614 | 299 | -34.0 | -39.1 | ||
| 2013-06-04T23:57 | 9666 | 297 | -34.3 | -40.6 | ||
| 2013-06-04T23:58 | 9860 | 288 | -36.2 | -40.9 | ||
| 2013-06-04T23:58 | 9878 | 288 | 242 | 31 | ||
| 2013-06-04T23:58 | 9948 | 285 | -36.8 | -43.1 | ||
| 2013-06-04T23:58 | 10156 | 276 | -38.8 | -43.7 | ||
| 2013-06-04T23:58 | 10207 | 274 | 249 | 36 | ||
| 2013-06-04T23:59 | 10219 | 274 | -38.8 | -48.3 | ||
| 2013-06-04T23:59 | 10252 | 272 | -39.2 | -50.2 | ||
| 2013-06-04T23:59 | 10326 | 270 | -40.0 | -48.7 | ||
| 2013-06-05T00:04 | 11991 | 209 | -55.6 | |||
| 2013-06-05T00:07 | 12882 | 182 | -64.0 | |||
| 2013-06-05T00:07 | 13041 | 177 | -65.3 | |||
| 2013-06-05T00:08 | 13169 | 173 | 247 | 51 | ||
| 2013-06-05T00:08 | 13331 | 169 | -65.7 | |||
| 2013-06-05T00:09 | 13526 | 163 | -66.7 | |||
| 2013-06-05T00:10 | 13871 | 154 | -66.0 | |||
| 2013-06-05T00:10 | 14006 | 151 | -66.8 | |||
| 2013-06-05T00:10 | 14066 | 149 | -66.0 | 253 | 32 | |
| 2013-06-05T00:10 | 14121 | 148 | -66.3 | |||
| 2013-06-05T00:11 | 14250 | 145 | -65.3 | |||
| 2013-06-05T00:11 | 14351 | 143 | -65.5 | |||
| 2013-06-05T00:11 | 14470 | 140 | -64.2 | |||
| 2013-06-05T00:11 | 14494 | 139 | 246 | 33 | ||
| 2013-06-05T00:12 | 14830 | 132 | -63.2 | |||
| 2013-06-05T00:13 | 14940 | 130 | 257 | 29 | ||
| 2013-06-05T00:13 | 15189 | 124 | 253 | 32 | ||
| 2013-06-05T00:14 | 15269 | 123 | -64.4 | |||
| 2013-06-05T00:15 | 15665 | 115 | -63.4 | |||
| 2013-06-05T00:15 | 15925 | 110 | -64.8 | 280 | 21 | |
| 2013-06-05T00:16 | 16010 | 109 | -64.5 | |||
| 2013-06-05T00:16 | 16180 | 106 | -65.8 | |||
| 2013-06-05T00:16 | 16294 | 104 | -65.9 | |||
| 2013-06-05T00:17 | 16517 | 100 | -64.6 | 262 | 12 | |
| 2013-06-05T00:18 | 16680 | 97 | -65.5 | |||
| 2013-06-05T00:18 | 16815 | 95 | -64.4 | |||
| 2013-06-05T00:18 | 16958 | 93 | 261 | 15 | ||
| 2013-06-05T00:19 | 17246 | 89 | 280 | 17 | ||
| 2013-06-05T00:20 | 17663 | 83 | -67.7 | |||
| 2013-06-05T00:20 | 17697 | 82 | 306 | 10 | ||
| 2013-06-05T00:21 | 17708 | 82 | -66.4 | |||
| 2013-06-05T00:21 | 17890 | 80 | 312 | 5 | ||
| 2013-06-05T00:21 | 18029 | 78 | 296 | 3 | ||
| 2013-06-05T00:22 | 18223 | 76 | -62.3 | |||
| 2013-06-05T00:22 | 18235 | 75 | 199 | 6 | ||
| 2013-06-05T00:22 | 18358 | 74 | -62.3 | |||
| 2013-06-05T00:22 | 18370 | 74 | 188 | 9 | ||
| 2013-06-05T00:23 | 18547 | 72 | -59.5 | |||
| 2013-06-05T00:23 | 18590 | 71 | 223 | 5 | ||
| 2013-06-05T00:24 | 18779 | 69 | 285 | 5 | ||
| 2013-06-05T00:24 | 18933 | 67 | -59.6 | |||
| 2013-06-05T00:25 | 19246 | 64 | -62.2 | 290 | 7 | |
| 2013-06-05T00:26 | 19557 | 61 | 354 | 7 | ||
| 2013-06-05T00:26 | 19738 | 59 | 11 | 5 | ||
| 2013-06-05T00:27 | 19934 | 57 | -59.9 | |||
| 2013-06-05T00:27 | 20078 | 56 | -60.6 | |||
| 2013-06-05T00:28 | 20220 | 55 | 348 | 3 | ||
| 2013-06-05T00:28 | 20527 | 52 | -58.7 | |||
| 2013-06-05T00:29 | 20811 | 50 | -59.4 | |||
| 2013-06-05T00:31 | 21314 | 46 | -55.5 | |||
| 2013-06-05T00:31 | 21390 | 46 | 63 | 6 | ||
| 2013-06-05T00:32 | 21804 | 43 | 89 | 7 | ||
| 2013-06-05T00:32 | 21814 | 43 | -53.8 | |||
| 2013-06-05T00:33 | 22268 | 40 | 68 | 10 | ||
| 2013-06-05T00:35 | 23072 | 35 | 73 | 9 | ||
| 2013-06-05T00:36 | 23225 | 34 | -53.5 | |||
| 2013-06-05T00:36 | 23238 | 34 | 87 | 7 | ||
| 2013-06-05T00:36 | 23444 | 33 | 78 | 8 | ||
| 2013-06-05T00:37 | 23647 | 32 | -54.1 | |||
| 2013-06-05T00:37 | 23845 | 31 | 114 | 10 | ||
| 2013-06-05T00:38 | 24205 | 29 | 102 | 14 | ||
| 2013-06-05T00:39 | 24508 | 28 | 94 | 12 | ||
| 2013-06-05T00:39 | 24557 | 28 | -50.4 | |||
| 2013-06-05T00:40 | 24825 | 27 | -50.8 | |||
| 2013-06-05T00:41 | 25173 | 25 | -47.9 | |||
| 2013-06-05T00:44 | 26239 | 22 | 115 | 13 | ||
| 2013-06-05T00:44 | 26458 | 21 | 108 | 10 | ||
| 2013-06-05T00:44 | 26514 | 21 | -47.2 | |||
| 2013-06-05T00:45 | 26692 | 20 | 79 | 9 | ||
| 2013-06-05T00:46 | 27137 | 19 | 86 | 12 | ||
| 2013-06-05T00:47 | 27430 | 18 | -47.4 | 70 | 9 | |
| 2013-06-05T11:30 | 18 | 1014 | 24.0 | 18.6 | 290 | 2 |
| 2013-06-05T11:30 | 44 | 1011 | 23.2 | 18.1 | ||
| 2013-06-05T11:30 | 173 | 996 | 22.2 | 18.2 | ||
| 2013-06-05T11:31 | 196 | 993 | 22.5 | 17.9 | ||
| 2013-06-05T11:31 | 252 | 987 | 22.1 | 17.3 | ||
| 2013-06-05T11:31 | 329 | 978 | 22.4 | 16.7 | ||
| 2013-06-05T11:31 | 364 | 974 | 0 | 0 | ||
| 2013-06-05T11:32 | 674 | 940 | 19.7 | 16.0 | ||
| 2013-06-05T11:33 | 950 | 910 | 18.3 | 13.0 | ||
| 2013-06-05T11:33 | 1161 | 888 | 16.4 | 12.2 | ||
| 2013-06-05T11:34 | 1357 | 868 | 15.5 | 7.5 | ||
| 2013-06-05T11:34 | 1462 | 857 | 15.6 | 1.3 | ||
| 2013-06-05T11:34 | 1500 | 854 | 93 | 7 | ||
| 2013-06-05T11:34 | 1583 | 845 | 15.1 | -4.8 | ||
| 2013-06-05T11:35 | 1719 | 832 | 13.8 | -3.5 | ||
| 2013-06-05T11:35 | 1839 | 820 | 12.9 | -4.7 | 101 | 11 |
| 2013-06-05T11:36 | 1969 | 807 | 13.1 | -13.0 | ||
| 2013-06-05T11:36 | 2070 | 798 | 120 | 7 | ||
| 2013-06-05T11:36 | 2117 | 793 | 12.6 | -11.1 | ||
| 2013-06-05T11:36 | 2177 | 788 | 13.0 | -18.0 | ||
| 2013-06-05T11:36 | 2317 | 774 | 117 | 2 | ||
| 2013-06-05T11:37 | 2329 | 773 | 11.9 | -13.9 | ||
| 2013-06-05T11:37 | 2417 | 765 | 11.4 | -19.2 | ||
| 2013-06-05T11:37 | 2510 | 757 | 10.8 | -12.6 | ||
| 2013-06-05T11:38 | 2824 | 729 | 70 | 6 | ||
| 2013-06-05T11:39 | 3160 | 699 | 5.7 | -19.8 | ||
| 2013-06-05T11:39 | 3288 | 689 | 83 | 10 | ||
| 2013-06-05T11:40 | 3478 | 673 | 4.2 | -23.7 | ||
| 2013-06-05T11:40 | 3622 | 661 | 98 | 7 | ||
| 2013-06-05T11:40 | 3666 | 657 | 2.5 | -25.1 | ||
| 2013-06-05T11:41 | 3722 | 653 | 2.3 | -22.5 | ||
| 2013-06-05T11:41 | 3756 | 650 | 2.6 | -29.9 | ||
| 2013-06-05T11:41 | 3874 | 640 | 2.0 | -32.0 | ||
| 2013-06-05T11:42 | 4083 | 624 | 73 | 5 | ||
| 2013-06-05T11:42 | 4127 | 621 | -0.1 | -25.3 | ||
| 2013-06-05T11:42 | 4288 | 608 | -0.5 | -27.4 | ||
| 2013-06-05T11:42 | 4389 | 601 | 82 | 2 | ||
| 2013-06-05T11:43 | 4430 | 598 | -1.7 | -27.4 | ||
| 2013-06-05T11:43 | 4737 | 575 | -3.3 | -24.3 | ||
| 2013-06-05T11:45 | 5119 | 548 | -5.6 | -31.5 | ||
| 2013-06-05T11:46 | 5817 | 501 | -10.3 | -35.2 | ||
| 2013-06-05T11:47 | 5855 | 498 | 104 | 5 | ||
| 2013-06-05T11:47 | 5890 | 496 | -10.2 | -38.3 | ||
| 2013-06-05T11:47 | 5959 | 491 | -9.6 | -37.8 | ||
| 2013-06-05T11:47 | 6033 | 487 | 126 | 5 | ||
| 2013-06-05T11:48 | 6461 | 460 | -13.6 | -33.5 | ||
| 2013-06-05T11:49 | 6587 | 453 | -14.7 | -38.7 | ||
| 2013-06-05T11:49 | 6676 | 447 | -14.8 | -41.9 | ||
| 2013-06-05T11:49 | 6909 | 434 | -16.7 | -38.7 | ||
| 2013-06-05T11:50 | 6947 | 431 | 53 | 8 | ||
| 2013-06-05T11:50 | 6961 | 431 | -16.7 | -38.7 | ||
| 2013-06-05T11:50 | 7173 | 419 | 79 | 9 | ||
| 2013-06-05T11:51 | 7374 | 407 | -20.6 | -35.1 | ||
| 2013-06-05T11:51 | 7564 | 397 | 74 | 7 | ||
| 2013-06-05T11:51 | 7673 | 391 | 81 | 5 | ||
| 2013-06-05T11:51 | 7686 | 391 | -23.5 | -36.9 | ||
| 2013-06-05T11:52 | 7740 | 388 | -22.5 | -27.0 | ||
| 2013-06-05T11:52 | 7763 | 386 | -22.3 | -24.7 | ||
| 2013-06-05T11:52 | 7786 | 385 | -22.2 | -24.3 | ||
| 2013-06-05T11:52 | 8023 | 373 | -22.6 | -25.0 | ||
| 2013-06-05T11:53 | 8117 | 368 | 233 | 4 | ||
| 2013-06-05T11:53 | 8227 | 363 | 228 | 5 | ||
| 2013-06-05T11:54 | 8529 | 348 | -26.4 | -29.1 | ||
| 2013-06-05T11:54 | 8576 | 346 | -26.8 | -30.2 | ||
| 2013-06-05T11:54 | 8671 | 341 | 222 | 12 | ||
| 2013-06-05T11:55 | 8824 | 334 | -28.9 | -32.2 | ||
| 2013-06-05T11:55 | 8908 | 330 | -29.1 | -32.6 | ||
| 2013-06-05T11:55 | 8920 | 330 | 235 | 15 | ||
| 2013-06-05T11:55 | 9013 | 325 | -30.0 | -33.4 | ||
| 2013-06-05T11:56 | 9243 | 315 | 223 | 24 | ||
| 2013-06-05T11:56 | 9478 | 305 | -32.7 | -36.5 | ||
| 2013-06-05T11:57 | 9691 | 296 | -34.4 | -38.4 | ||
| 2013-06-05T11:59 | 10312 | 270 | -40.0 | -44.5 | ||
| 2013-06-05T12:01 | 10873 | 249 | -45.0 | |||
| 2013-06-05T12:02 | 11196 | 237 | -47.1 | |||
| 2013-06-05T12:03 | 11736 | 218 | 241 | 38 | ||
| 2013-06-05T12:04 | 12092 | 206 | -54.7 | |||
| 2013-06-05T12:05 | 12291 | 200 | 233 | 42 | ||
| 2013-06-05T12:05 | 12373 | 197 | -55.3 | |||
| 2013-06-05T12:06 | 12841 | 183 | 222 | 41 | ||
| 2013-06-05T12:07 | 12866 | 183 | -59.6 | |||
| 2013-06-05T12:07 | 13209 | 173 | -63.0 | |||
| 2013-06-05T12:10 | 13955 | 153 | -68.4 | |||
| 2013-06-05T12:10 | 14128 | 149 | 233 | 45 | ||
| 2013-06-05T12:10 | 14153 | 148 | -65.5 | |||
| 2013-06-05T12:10 | 14292 | 145 | -64.5 | |||
| 2013-06-05T12:12 | 14757 | 134 | -65.6 | |||
| 2013-06-05T12:12 | 14884 | 131 | -64.8 | |||
| 2013-06-05T12:12 | 14959 | 130 | 256 | 21 | ||
| 2013-06-05T12:13 | 15131 | 126 | -65.5 | |||
| 2013-06-05T12:13 | 15257 | 123 | -65.2 | |||
| 2013-06-05T12:13 | 15340 | 122 | -63.9 | |||
| 2013-06-05T12:14 | 15454 | 120 | 264 | 17 | ||
| 2013-06-05T12:14 | 15467 | 119 | -64.5 | |||
| 2013-06-05T12:14 | 15637 | 116 | -63.8 | |||
| 2013-06-05T12:15 | 15794 | 113 | 252 | 19 | ||
| 2013-06-05T12:15 | 15944 | 110 | -65.4 | |||
| 2013-06-05T12:15 | 16041 | 109 | -63.9 | |||
| 2013-06-05T12:16 | 16253 | 105 | 293 | 14 | ||
| 2013-06-05T12:17 | 16542 | 100 | -63.9 | 301 | 11 | |
| 2013-06-05T12:18 | 16749 | 97 | 310 | 6 | ||
| 2013-06-05T12:18 | 16790 | 96 | -63.9 | |||
| 2013-06-05T12:18 | 16909 | 94 | 291 | 4 | ||
| 2013-06-05T12:19 | 17316 | 88 | -66.7 | |||
| 2013-06-05T12:20 | 17494 | 86 | 250 | 7 | ||
| 2013-06-05T12:20 | 17617 | 84 | 253 | 9 | ||
| 2013-06-05T12:20 | 17638 | 84 | -67.3 | |||
| 2013-06-05T12:21 | 17730 | 82 | 277 | 10 | ||
| 2013-06-05T12:21 | 17752 | 82 | -65.6 | |||
| 2013-06-05T12:21 | 17852 | 81 | 299 | 9 | ||
| 2013-06-05T12:22 | 18066 | 78 | -65.6 | |||
| 2013-06-05T12:22 | 18226 | 76 | 321 | 8 | ||
| 2013-06-05T12:22 | 18260 | 75 | -64.2 | |||
| 2013-06-05T12:23 | 18377 | 74 | -64.6 | |||
| 2013-06-05T12:23 | 18411 | 74 | 305 | 6 | ||
| 2013-06-05T12:23 | 18560 | 72 | 309 | 8 | ||
| 2013-06-05T12:23 | 18591 | 71 | -62.5 | |||
| 2013-06-05T12:24 | 18684 | 70 | -59.9 | |||
| 2013-06-05T12:24 | 18747 | 70 | 339 | 5 | ||
| 2013-06-05T12:25 | 19017 | 67 | 287 | 5 | ||
| 2013-06-05T12:25 | 19060 | 66 | -60.9 | |||
| 2013-06-05T12:25 | 19114 | 66 | 302 | 6 | ||
| 2013-06-05T12:26 | 19367 | 63 | 21 | 5 | ||
| 2013-06-05T12:26 | 19436 | 62 | -59.7 | |||
| 2013-06-05T12:27 | 19611 | 61 | -60.9 | |||
| 2013-06-05T12:28 | 19948 | 58 | 0 | 0 | ||
| 2013-06-05T12:28 | 20049 | 57 | -59.2 | |||
| 2013-06-05T12:28 | 20125 | 56 | -58.0 | |||
| 2013-06-05T12:31 | 21184 | 47 | -58.0 | |||
| 2013-06-05T12:31 | 21196 | 47 | 47 | 5 | ||
| 2013-06-05T12:32 | 21339 | 46 | 65 | 5 | ||
| 2013-06-05T12:33 | 21796 | 43 | -56.4 | |||
| 2013-06-05T12:34 | 22208 | 40 | -53.7 | |||
| 2013-06-05T12:35 | 22305 | 40 | 7 | 3 | ||
| 2013-06-05T12:35 | 22403 | 39 | 24 | 5 | ||
| 2013-06-05T12:35 | 22606 | 38 | 52 | 10 | ||
| 2013-06-05T12:36 | 22711 | 37 | -53.0 | |||
| 2013-06-05T12:36 | 22883 | 36 | 43 | 7 | ||
| 2013-06-05T12:36 | 22982 | 36 | -54.3 | |||
| 2013-06-05T12:37 | 23113 | 35 | 79 | 6 | ||
| 2013-06-05T12:38 | 23414 | 33 | 79 | 6 | ||
| 2013-06-05T12:38 | 23567 | 33 | -54.3 | 28 | 3 | |
| 2013-06-05T12:38 | 23676 | 32 | -53.1 | |||
| 2013-06-05T12:38 | 23735 | 32 | 41 | 5 | ||
| 2013-06-05T12:39 | 23890 | 31 | 74 | 8 | ||
| 2013-06-05T12:40 | 24201 | 30 | 84 | 7 | ||
| 2013-06-05T12:40 | 24265 | 29 | -53.9 | |||
| 2013-06-05T12:40 | 24389 | 29 | 43 | 6 | ||
| 2013-06-05T12:41 | 24681 | 27 | 74 | 8 | ||
| 2013-06-05T12:41 | 24807 | 27 | -53.4 | |||
| 2013-06-05T12:42 | 24883 | 27 | 59 | 7 | ||
| 2013-06-05T12:42 | 25162 | 25 | 76 | 8 | ||
| 2013-06-05T12:43 | 25339 | 25 | -50.5 | |||
| 2013-06-05T12:43 | 25515 | 24 | 44 | 12 | ||
| 2013-06-05T12:44 | 25692 | 23 | 55 | 14 | ||
| 2013-06-05T12:44 | 25812 | 23 | -51.9 | |||
| 2013-06-05T12:44 | 25824 | 23 | 67 | 14 | ||
| 2013-06-05T12:46 | 26604 | 20 | -48.9 | |||
| 2013-06-05T12:47 | 26944 | 19 | 56 | 11 | ||
| 2013-06-05T12:48 | 27219 | 19 | -49.4 | |||
| 2013-06-05T12:49 | 27653 | 17 | 76 | 10 | ||
| 2013-06-05T12:50 | 27927 | 17 | 67 | 11 | ||
| 2013-06-05T12:50 | 28085 | 16 | 81 | 12 | ||
| 2013-06-05T12:51 | 28326 | 16 | -45.9 | |||
| 2013-06-05T12:51 | 28431 | 15 | 61 | 14 | ||
| 2013-06-05T12:52 | 28737 | 15 | 80 | 12 | ||
| 2013-06-05T12:52 | 28958 | 14 | -45.5 | |||
| 2013-06-05T12:53 | 29352 | 13 | -45.7 | 64 | 15 | |
| 2013-06-05T23:30 | 18 | 1013 | 22.9 | 16.0 | 90 | 0 |
| 2013-06-05T23:30 | 67 | 1007 | 21.8 | 14.7 | ||
| 2013-06-05T23:31 | 345 | 975 | 19.7 | 13.9 | ||
| 2013-06-05T23:31 | 410 | 968 | 19.5 | 13.2 | ||
| 2013-06-05T23:31 | 456 | 963 | 103 | 5 | ||
| 2013-06-05T23:31 | 467 | 962 | 20.1 | 12.4 | ||
| 2013-06-05T23:32 | 585 | 949 | 120 | 8 | ||
| 2013-06-05T23:32 | 673 | 939 | 18.5 | 11.3 | ||
| 2013-06-05T23:32 | 754 | 930 | 18.5 | 10.3 | ||
| 2013-06-05T23:33 | 878 | 917 | 17.6 | 10.0 | ||
| 2013-06-05T23:33 | 969 | 907 | 108 | 12 | ||
| 2013-06-05T23:33 | 998 | 904 | 17.5 | 7.5 | ||
| 2013-06-05T23:33 | 1111 | 892 | 16.9 | 5.8 | ||
| 2013-06-05T23:34 | 1142 | 889 | 16.8 | 7.2 | ||
| 2013-06-05T23:34 | 1446 | 858 | 107 | 11 | ||
| 2013-06-05T23:35 | 1521 | 850 | 14.1 | 3.3 | ||
| 2013-06-05T23:35 | 1612 | 841 | 13.4 | 1.4 | ||
| 2013-06-05T23:35 | 1653 | 837 | 13.5 | -2.1 | ||
| 2013-06-05T23:35 | 1663 | 836 | 119 | 9 | ||
| 2013-06-05T23:36 | 1772 | 825 | 12.8 | -3.5 | ||
| 2013-06-05T23:36 | 1852 | 817 | 13.3 | -6.9 | ||
| 2013-06-05T23:36 | 1882 | 814 | 81 | 8 | ||
| 2013-06-05T23:36 | 1903 | 812 | 13.3 | -9.9 | ||
| 2013-06-05T23:37 | 2095 | 794 | 11.8 | -10.5 | ||
| 2013-06-05T23:37 | 2300 | 775 | 10.7 | -19.7 | ||
| 2013-06-05T23:37 | 2365 | 769 | 10.2 | -11.8 | ||
| 2013-06-05T23:38 | 2530 | 753 | 8.9 | -12.3 | ||
| 2013-06-05T23:38 | 2694 | 739 | 8.5 | -15.2 | ||
| 2013-06-05T23:38 | 2719 | 736 | 73 | 9 | ||
| 2013-06-05T23:39 | 2880 | 722 | 8.5 | -18.4 | ||
| 2013-06-05T23:39 | 2955 | 716 | 38 | 7 | ||
| 2013-06-05T23:40 | 3090 | 704 | 6.8 | -20.7 | ||
| 2013-06-05T23:40 | 3136 | 700 | 46 | 6 | ||
| 2013-06-05T23:40 | 3155 | 698 | 6.7 | -21.8 | ||
| 2013-06-05T23:40 | 3304 | 686 | 5.4 | -20.9 | ||
| 2013-06-05T23:41 | 3393 | 678 | 4.6 | -15.3 | ||
| 2013-06-05T23:41 | 3580 | 663 | 26 | 8 | ||
| 2013-06-05T23:41 | 3604 | 661 | 3.6 | -18.5 | ||
| 2013-06-05T23:42 | 3851 | 641 | 40 | 8 | ||
| 2013-06-05T23:43 | 4220 | 612 | -1.5 | -21.6 | ||
| 2013-06-05T23:43 | 4287 | 607 | -1.5 | -22.8 | ||
| 2013-06-05T23:43 | 4396 | 599 | -2.3 | -24.1 | ||
| 2013-06-05T23:44 | 4547 | 588 | -3.0 | -19.0 | ||
| 2013-06-05T23:44 | 4633 | 581 | -3.7 | -19.6 | ||
| 2013-06-05T23:45 | 4777 | 571 | -3.9 | -33.4 | ||
| 2013-06-05T23:45 | 4810 | 568 | 21 | 3 | ||
| 2013-06-05T23:45 | 4886 | 563 | -4.4 | -31.5 | ||
| 2013-06-05T23:45 | 5006 | 554 | -5.3 | -22.3 | ||
| 2013-06-05T23:45 | 5073 | 550 | 14 | 5 | ||
| 2013-06-05T23:46 | 5114 | 547 | -6.1 | -20.9 | ||
| 2013-06-05T23:46 | 5237 | 538 | -6.7 | -27.7 | ||
| 2013-06-05T23:46 | 5344 | 531 | -7.2 | -32.7 | 347 | 5 |
| 2013-06-05T23:47 | 5532 | 518 | -8.1 | -31.0 | ||
| 2013-06-05T23:47 | 5687 | 508 | -9.6 | -30.8 | ||
| 2013-06-05T23:48 | 5790 | 501 | 357 | 8 | ||
| 2013-06-05T23:48 | 5974 | 489 | -11.3 | -32.2 | ||
| 2013-06-05T23:49 | 6170 | 477 | -13.0 | -30.8 | 318 | 8 |
| 2013-06-05T23:49 | 6219 | 474 | -13.4 | -28.5 | ||
| 2013-06-05T23:49 | 6273 | 470 | -13.7 | -22.8 | ||
| 2013-06-05T23:50 | 6437 | 460 | -14.6 | -27.0 | ||
| 2013-06-05T23:50 | 6567 | 453 | -15.6 | -27.3 | ||
| 2013-06-05T23:50 | 6603 | 450 | -15.8 | -26.3 | ||
| 2013-06-05T23:50 | 6636 | 448 | -16.0 | -22.8 | ||
| 2013-06-05T23:51 | 6833 | 437 | 323 | 11 | ||
| 2013-06-05T23:51 | 6856 | 435 | -18.0 | -22.1 | ||
| 2013-06-05T23:51 | 6915 | 432 | -18.5 | -22.8 | ||
| 2013-06-05T23:51 | 7039 | 425 | 335 | 6 | ||
| 2013-06-05T23:52 | 7113 | 421 | -19.5 | -23.1 | ||
| 2013-06-05T23:52 | 7142 | 419 | 4 | 3 | ||
| 2013-06-05T23:52 | 7163 | 418 | -19.4 | -23.3 | ||
| 2013-06-05T23:52 | 7288 | 411 | -20.2 | -23.9 | ||
| 2013-06-05T23:53 | 7430 | 403 | -20.8 | -26.9 | ||
| 2013-06-05T23:53 | 7608 | 393 | -22.0 | -27.1 | ||
| 2013-06-05T23:53 | 7718 | 388 | 346 | 5 | ||
| 2013-06-05T23:54 | 7762 | 385 | 332 | 5 | ||
| 2013-06-05T23:54 | 7792 | 384 | -22.6 | -30.2 | ||
| 2013-06-05T23:54 | 7803 | 383 | 320 | 5 | ||
| 2013-06-05T23:54 | 7829 | 382 | -22.4 | -31.6 | ||
| 2013-06-05T23:54 | 7941 | 376 | -23.0 | -34.0 | ||
| 2013-06-05T23:55 | 8139 | 366 | 266 | 8 | ||
| 2013-06-05T23:55 | 8243 | 361 | -25.4 | -37.3 | ||
| 2013-06-05T23:55 | 8424 | 352 | -26.5 | -41.5 | ||
| 2013-06-05T23:56 | 8605 | 343 | -27.7 | -40.3 | ||
| 2013-06-05T23:57 | 8936 | 328 | -31.0 | -41.2 | ||
| 2013-06-05T23:57 | 8972 | 326 | 257 | 18 | ||
| 2013-06-05T23:57 | 9061 | 322 | -32.2 | -40.6 | ||
| 2013-06-05T23:57 | 9137 | 318 | -32.5 | -38.2 | ||
| 2013-06-05T23:57 | 9171 | 317 | -32.4 | -37.9 | ||
| 2013-06-05T23:57 | 9322 | 310 | 230 | 24 | ||
| 2013-06-05T23:58 | 9456 | 304 | -34.6 | -39.0 | ||
| 2013-06-05T23:58 | 9598 | 298 | 213 | 26 | ||
| 2013-06-05T23:59 | 9706 | 294 | -35.8 | -40.6 | ||
| 2013-06-05T23:59 | 10036 | 280 | 199 | 28 | ||
| 2013-06-06T00:00 | 10232 | 272 | -40.0 | -44.8 | ||
| 2013-06-06T00:01 | 10655 | 256 | -43.0 | |||
| 2013-06-06T00:03 | 11368 | 230 | 205 | 35 | ||
| 2013-06-06T00:04 | 11963 | 209 | 205 | 36 | ||
| 2013-06-06T00:05 | 12072 | 206 | -56.0 | |||
| 2013-06-06T00:07 | 12803 | 183 | -60.7 | |||
| 2013-06-06T00:07 | 13048 | 176 | -62.9 | |||
| 2013-06-06T00:08 | 13337 | 168 | -63.5 | |||
| 2013-06-06T00:08 | 13419 | 166 | -63.1 | |||
| 2013-06-06T00:09 | 13658 | 159 | -65.2 | |||
| 2013-06-06T00:09 | 13778 | 156 | 219 | 32 | ||
| 2013-06-06T00:09 | 13796 | 156 | -65.7 | |||
| 2013-06-06T00:10 | 13893 | 153 | -64.4 | |||
| 2013-06-06T00:10 | 14029 | 150 | -65.2 | |||
| 2013-06-06T00:10 | 14109 | 148 | 230 | 21 | ||
| 2013-06-06T00:10 | 14219 | 145 | -63.8 | |||
| 2013-06-06T00:11 | 14269 | 144 | -61.9 | |||
| 2013-06-06T00:11 | 14286 | 144 | 264 | 12 | ||
| 2013-06-06T00:11 | 14305 | 143 | -61.5 | |||
| 2013-06-06T00:11 | 14526 | 138 | -62.7 | |||
| 2013-06-06T00:12 | 14605 | 137 | -61.9 | |||
| 2013-06-06T00:12 | 14670 | 135 | -62.3 | |||
| 2013-06-06T00:12 | 14760 | 133 | -60.8 | |||
| 2013-06-06T00:12 | 14892 | 130 | 242 | 13 | ||
| 2013-06-06T00:13 | 14937 | 130 | -61.7 | |||
| 2013-06-06T00:13 | 15112 | 126 | -61.0 | |||
| 2013-06-06T00:13 | 15207 | 124 | -61.6 | |||
| 2013-06-06T00:14 | 15345 | 121 | -61.0 | |||
| 2013-06-06T00:14 | 15461 | 119 | -62.1 | |||
| 2013-06-06T00:14 | 15471 | 119 | 266 | 18 | ||
| 2013-06-06T00:14 | 15540 | 118 | -61.7 | |||
| 2013-06-06T00:15 | 15905 | 111 | -63.5 | |||
| 2013-06-06T00:16 | 16143 | 107 | 291 | 14 | ||
| 2013-06-06T00:16 | 16216 | 105 | -64.2 | |||
| 2013-06-06T00:17 | 16529 | 100 | -63.8 | 285 | 11 | |
| 2013-06-06T00:17 | 16670 | 98 | -64.7 | |||
| 2013-06-06T00:18 | 16706 | 97 | 275 | 12 | ||
| 2013-06-06T00:19 | 17061 | 92 | 326 | 10 | ||
| 2013-06-06T00:19 | 17097 | 91 | -63.9 | |||
| 2013-06-06T00:19 | 17386 | 87 | -65.4 | |||
| 2013-06-06T00:19 | 17398 | 87 | 311 | 6 | ||
| 2013-06-06T00:20 | 17506 | 85 | -65.0 | |||
| 2013-06-06T00:20 | 17568 | 84 | -63.6 | |||
| 2013-06-06T00:21 | 17943 | 79 | 40 | 5 | ||
| 2013-06-06T00:22 | 18318 | 75 | 74 | 1 | ||
| 2013-06-06T00:23 | 18676 | 70 | -65.4 | |||
| 2013-06-06T00:23 | 18811 | 69 | -64.6 | |||
| 2013-06-06T00:23 | 18882 | 68 | -62.9 | 307 | 5 | |
| 2013-06-06T00:24 | 18949 | 67 | 326 | 7 | ||
| 2013-06-06T00:25 | 19267 | 64 | 357 | 7 | ||
| 2013-06-06T00:25 | 19476 | 62 | -60.5 | |||
| 2013-06-06T00:25 | 19499 | 62 | 339 | 5 | ||
| 2013-06-06T00:26 | 19616 | 60 | -60.9 | |||
| 2013-06-06T00:26 | 19774 | 59 | -59.1 | |||
| 2013-06-06T00:26 | 19931 | 57 | 3 | 12 | ||
| 2013-06-06T00:27 | 20079 | 56 | -60.4 | |||
| 2013-06-06T00:27 | 20263 | 55 | -59.6 | |||
| 2013-06-06T00:27 | 20288 | 54 | 60 | 10 | ||
| 2013-06-06T00:28 | 20441 | 53 | 64 | 7 | ||
| 2013-06-06T00:28 | 20588 | 52 | 32 | 7 | ||
| 2013-06-06T00:29 | 20937 | 49 | 61 | 8 | ||
| 2013-06-06T00:30 | 21099 | 48 | -60.1 | |||
| 2013-06-06T00:30 | 21134 | 47 | 98 | 8 | ||
| 2013-06-06T00:30 | 21259 | 46 | 101 | 7 | ||
| 2013-06-06T00:30 | 21424 | 45 | 69 | 6 | ||
| 2013-06-06T00:31 | 21620 | 44 | 90 | 7 | ||
| 2013-06-06T00:31 | 21669 | 44 | -58.0 | |||
| 2013-06-06T00:31 | 21806 | 43 | 74 | 7 | ||
| 2013-06-06T00:32 | 22172 | 40 | -59.3 | |||
| 2013-06-06T00:32 | 22208 | 40 | 100 | 7 | ||
| 2013-06-06T00:33 | 22413 | 39 | 92 | 4 | ||
| 2013-06-06T00:34 | 22636 | 37 | -59.0 | |||
| 2013-06-06T00:34 | 22800 | 36 | -57.4 | |||
| 2013-06-06T00:34 | 22904 | 36 | 34 | 6 | ||
| 2013-06-06T00:35 | 23211 | 34 | 62 | 9 | ||
| 2013-06-06T00:35 | 23235 | 34 | -58.5 | |||
| 2013-06-06T00:36 | 23484 | 33 | -56.4 | |||
| 2013-06-06T00:36 | 23628 | 32 | 46 | 10 | ||
| 2013-06-06T00:36 | 23766 | 31 | -57.0 | |||
| 2013-06-06T00:37 | 23833 | 31 | 63 | 10 | ||
| 2013-06-06T00:37 | 24078 | 30 | 49 | 10 | ||
| 2013-06-06T00:37 | 24153 | 29 | -52.9 | |||
| 2013-06-06T00:39 | 24562 | 28 | 85 | 11 | ||
| 2013-06-06T00:39 | 24774 | 27 | -49.7 | 69 | 12 | |
| 2013-06-06T00:40 | 25016 | 26 | 75 | 15 | ||
| 2013-06-06T00:40 | 25146 | 25 | -50.9 | |||
| 2013-06-06T00:42 | 25794 | 23 | 82 | 10 | ||
| 2013-06-06T00:42 | 25862 | 23 | -50.9 | |||
| 2013-06-06T00:43 | 26194 | 21 | 108 | 9 | ||
| 2013-06-06T00:43 | 26445 | 21 | 86 | 10 | ||
| 2013-06-06T00:43 | 26508 | 20 | -48.7 | |||
| 2013-06-06T00:45 | 26995 | 19 | 115 | 10 | ||
| 2013-06-06T00:45 | 27356 | 18 | 95 | 12 | ||
| 2013-06-06T00:46 | 27504 | 18 | -49.5 | |||
| 2013-06-06T00:47 | 27872 | 17 | 121 | 6 | ||
| 2013-06-06T00:47 | 27988 | 16 | -47.1 | |||
| 2013-06-06T00:48 | 28395 | 15 | 103 | 2 | ||
| 2013-06-06T00:49 | 28992 | 14 | 60 | 7 | ||
| 2013-06-06T00:49 | 29146 | 14 | -46.2 | |||
| 2013-06-06T00:50 | 29268 | 14 | 84 | 6 | ||
| 2013-06-06T00:51 | 29716 | 13 | 76 | 10 | ||
| 2013-06-06T00:51 | 29877 | 12 | -42.6 | |||
| 2013-06-06T00:52 | 30362 | 11 | -38.3 | |||
| 2013-06-06T00:52 | 30517 | 11 | 75 | 8 | ||
| 2013-06-06T00:53 | 30701 | 11 | 51 | 8 | ||
| 2013-06-06T00:53 | 30931 | 11 | 78 | 8 | ||
| 2013-06-06T00:53 | 30975 | 11 | -35.4 | |||
| 2013-06-06T00:54 | 31185 | 10 | 31 | 9 | ||
| 2013-06-06T00:54 | 31395 | 10 | 32 | 8 | ||
| 2013-06-06T00:55 | 31620 | 10 | 84 | 7 | ||
| 2013-06-06T00:55 | 31686 | 9 | -38.3 | |||
| 2013-06-06T00:55 | 31746 | 9 | 87 | 7 | ||
| 2013-06-06T00:55 | 31926 | 9 | 59 | 10 | ||
| 2013-06-06T00:56 | 31988 | 9 | -37.0 | |||
| 2013-06-06T00:56 | 32179 | 9 | 59 | 15 | ||
| 2013-06-06T00:56 | 32208 | 9 | -37.8 | 59 | 15 | |
| 2013-06-06T11:30 | 18 | 1011 | 21.4 | 19.1 | 320 | 2 |
| 2013-06-06T11:30 | 31 | 1010 | 20.8 | 17.6 | ||
| 2013-06-06T11:31 | 199 | 991 | 19.0 | 18.2 | ||
| 2013-06-06T11:31 | 377 | 970 | 18.7 | 17.4 | ||
| 2013-06-06T11:31 | 388 | 969 | 18.7 | 17.2 | ||
| 2013-06-06T11:31 | 420 | 965 | 20.2 | 15.2 | ||
| 2013-06-06T11:31 | 443 | 963 | 20.2 | 14.6 | ||
| 2013-06-06T11:31 | 486 | 958 | 20.0 | 13.7 | ||
| 2013-06-06T11:31 | 518 | 955 | 20.2 | 14.3 | ||
| 2013-06-06T11:32 | 578 | 948 | 19.7 | 15.6 | ||
| 2013-06-06T11:32 | 638 | 941 | 19.7 | 15.1 | ||
| 2013-06-06T11:33 | 922 | 911 | 17.7 | 13.8 | ||
| 2013-06-06T11:33 | 967 | 906 | 17.6 | 12.5 | ||
| 2013-06-06T11:33 | 1075 | 895 | 39 | 5 | ||
| 2013-06-06T11:33 | 1137 | 888 | 16.3 | 12.7 | ||
| 2013-06-06T11:34 | 1221 | 879 | 16.0 | 12.2 | ||
| 2013-06-06T11:34 | 1281 | 873 | 16.0 | 10.3 | ||
| 2013-06-06T11:34 | 1356 | 866 | 78 | 8 | ||
| 2013-06-06T11:34 | 1457 | 855 | 14.8 | 9.0 | ||
| 2013-06-06T11:34 | 1510 | 850 | 14.7 | 7.0 | ||
| 2013-06-06T11:35 | 1564 | 845 | 14.3 | 7.6 | ||
| 2013-06-06T11:35 | 1603 | 841 | 14.1 | 5.7 | ||
| 2013-06-06T11:35 | 1631 | 838 | 87 | 8 | ||
| 2013-06-06T11:35 | 1641 | 837 | 13.7 | 7.0 | ||
| 2013-06-06T11:35 | 1740 | 827 | 13.4 | 2.6 | ||
| 2013-06-06T11:35 | 1802 | 821 | 13.0 | 1.3 | ||
| 2013-06-06T11:35 | 1821 | 819 | 13.0 | 1.3 | ||
| 2013-06-06T11:36 | 1853 | 816 | 13.4 | -3.4 | ||
| 2013-06-06T11:36 | 1896 | 812 | 13.2 | -6.9 | ||
| 2013-06-06T11:36 | 1940 | 808 | 73 | 9 | ||
| 2013-06-06T11:36 | 1995 | 802 | 12.7 | -8.5 | ||
| 2013-06-06T11:36 | 2153 | 787 | 95 | 8 | ||
| 2013-06-06T11:37 | 2372 | 767 | 9.9 | -5.6 | ||
| 2013-06-06T11:37 | 2406 | 764 | 69 | 8 | ||
| 2013-06-06T11:38 | 2510 | 754 | 9.5 | -6.0 | ||
| 2013-06-06T11:38 | 2634 | 743 | 65 | 8 | ||
| 2013-06-06T11:38 | 2785 | 730 | 38 | 9 | ||
| 2013-06-06T11:39 | 2798 | 729 | 7.5 | -6.3 | ||
| 2013-06-06T11:39 | 2977 | 713 | 6.4 | -9.9 | ||
| 2013-06-06T11:39 | 3017 | 709 | 6.3 | -7.3 | ||
| 2013-06-06T11:39 | 3047 | 707 | 6.3 | -9.2 | ||
| 2013-06-06T11:40 | 3125 | 700 | 24 | 13 | ||
| 2013-06-06T11:40 | 3181 | 695 | 5.1 | -3.9 | ||
| 2013-06-06T11:41 | 3505 | 668 | 2.8 | -4.4 | ||
| 2013-06-06T11:41 | 3616 | 659 | 2.0 | -5.9 | ||
| 2013-06-06T11:41 | 3632 | 658 | 7 | 10 | ||
| 2013-06-06T11:41 | 3714 | 651 | 2.0 | -7.9 | ||
| 2013-06-06T11:42 | 3798 | 644 | 347 | 5 | ||
| 2013-06-06T11:42 | 3808 | 644 | 1.3 | -10.8 | ||
| 2013-06-06T11:42 | 3917 | 635 | 326 | 6 | ||
| 2013-06-06T11:42 | 3976 | 630 | 0.5 | -8.7 | ||
| 2013-06-06T11:43 | 4079 | 622 | 330 | 7 | ||
| 2013-06-06T11:44 | 4387 | 599 | 305 | 8 | ||
| 2013-06-06T11:44 | 4447 | 594 | -3.5 | -9.7 | ||
| 2013-06-06T11:44 | 4618 | 581 | 333 | 7 | ||
| 2013-06-06T11:45 | 4887 | 562 | -6.2 | -9.9 | ||
| 2013-06-06T11:45 | 4988 | 555 | -7.0 | -10.8 | ||
| 2013-06-06T11:46 | 5068 | 549 | -7.3 | -11.7 | ||
| 2013-06-06T11:46 | 5104 | 546 | -7.2 | -13.0 | ||
| 2013-06-06T11:46 | 5253 | 536 | -7.8 | -13.8 | ||
| 2013-06-06T11:46 | 5263 | 535 | -7.9 | -14.1 | ||
| 2013-06-06T11:46 | 5288 | 534 | -7.5 | -17.1 | ||
| 2013-06-06T11:46 | 5315 | 532 | -7.5 | -18.2 | ||
| 2013-06-06T11:46 | 5392 | 527 | 309 | 11 | ||
| 2013-06-06T11:47 | 5418 | 525 | -8.4 | -20.2 | ||
| 2013-06-06T11:47 | 5539 | 517 | -9.2 | -19.0 | ||
| 2013-06-06T11:47 | 5601 | 512 | -9.1 | -21.5 | ||
| 2013-06-06T11:47 | 5693 | 506 | -9.7 | -23.7 | ||
| 2013-06-06T11:48 | 5811 | 499 | -10.6 | -22.8 | ||
| 2013-06-06T11:48 | 5861 | 496 | -10.6 | -25.6 | ||
| 2013-06-06T11:48 | 5936 | 491 | -11.2 | -23.0 | ||
| 2013-06-06T11:48 | 6025 | 485 | 325 | 9 | ||
| 2013-06-06T11:48 | 6070 | 482 | -12.5 | -22.5 | ||
| 2013-06-06T11:49 | 6148 | 477 | -12.9 | -23.4 | ||
| 2013-06-06T11:49 | 6205 | 474 | -13.2 | -21.4 | ||
| 2013-06-06T11:49 | 6304 | 468 | -13.8 | -22.0 | ||
| 2013-06-06T11:49 | 6342 | 465 | 304 | 10 | ||
| 2013-06-06T11:49 | 6423 | 460 | -13.9 | -21.2 | ||
| 2013-06-06T11:50 | 6504 | 455 | -13.6 | -20.9 | ||
| 2013-06-06T11:50 | 6754 | 441 | 302 | 10 | ||
| 2013-06-06T11:50 | 6804 | 438 | -15.8 | -22.2 | ||
| 2013-06-06T11:51 | 6897 | 432 | -16.0 | -23.4 | ||
| 2013-06-06T11:51 | 6938 | 430 | 318 | 9 | ||
| 2013-06-06T11:51 | 7013 | 426 | -16.9 | -23.8 | ||
| 2013-06-06T11:51 | 7092 | 421 | -17.0 | -25.9 | ||
| 2013-06-06T11:52 | 7195 | 416 | 301 | 10 | ||
| 2013-06-06T11:52 | 7421 | 403 | -19.7 | -27.7 | ||
| 2013-06-06T11:52 | 7525 | 398 | -20.3 | -26.8 | ||
| 2013-06-06T11:53 | 7581 | 395 | -20.5 | -27.6 | ||
| 2013-06-06T11:54 | 7917 | 377 | -23.2 | -31.0 | ||
| 2013-06-06T11:54 | 8078 | 369 | 314 | 13 | ||
| 2013-06-06T11:55 | 8401 | 353 | 295 | 13 | ||
| 2013-06-06T11:55 | 8538 | 346 | -28.5 | -32.9 | ||
| 2013-06-06T11:56 | 8819 | 333 | -30.8 | -36.2 | ||
| 2013-06-06T11:57 | 9117 | 319 | -33.3 | -37.0 | ||
| 2013-06-06T11:57 | 9170 | 316 | 304 | 15 | ||
| 2013-06-06T11:58 | 9279 | 312 | -34.7 | -38.5 | ||
| 2013-06-06T11:58 | 9472 | 303 | -36.3 | -41.1 | ||
| 2013-06-06T11:58 | 9516 | 301 | 298 | 16 | ||
| 2013-06-06T11:59 | 9597 | 298 | -37.2 | -45.2 | ||
| 2013-06-06T11:59 | 9704 | 293 | -37.9 | -46.5 | ||
| 2013-06-06T11:59 | 9749 | 291 | -38.3 | -45.8 | ||
| 2013-06-06T12:00 | 9958 | 282 | -40.0 | -49.1 | ||
| 2013-06-06T12:01 | 10440 | 263 | -44.3 | |||
| 2013-06-06T12:02 | 10799 | 249 | 275 | 13 | ||
| 2013-06-06T12:03 | 11003 | 242 | -48.4 | |||
| 2013-06-06T12:05 | 11598 | 221 | 313 | 11 | ||
| 2013-06-06T12:05 | 11766 | 215 | -52.0 | |||
| 2013-06-06T12:06 | 12093 | 204 | -53.9 | |||
| 2013-06-06T12:07 | 12413 | 194 | -56.8 | |||
| 2013-06-06T12:07 | 12434 | 194 | 332 | 19 | ||
| 2013-06-06T12:08 | 12641 | 187 | 337 | 17 | ||
| 2013-06-06T12:10 | 13202 | 171 | -60.8 | |||
| 2013-06-06T12:10 | 13253 | 170 | -60.1 | |||
| 2013-06-06T12:10 | 13333 | 168 | 315 | 19 | ||
| 2013-06-06T12:10 | 13347 | 167 | -60.6 | |||
| 2013-06-06T12:10 | 13428 | 165 | -58.7 | |||
| 2013-06-06T12:11 | 13604 | 161 | -59.9 | |||
| 2013-06-06T12:11 | 13616 | 160 | 300 | 11 | ||
| 2013-06-06T12:11 | 13749 | 157 | -59.5 | |||
| 2013-06-06T12:12 | 13871 | 154 | -60.3 | |||
| 2013-06-06T12:13 | 14250 | 145 | -60.7 | |||
| 2013-06-06T12:13 | 14334 | 143 | -60.2 | |||
| 2013-06-06T12:13 | 14375 | 142 | -59.1 | |||
| 2013-06-06T12:14 | 14764 | 133 | -59.4 | |||
| 2013-06-06T12:15 | 14922 | 130 | 285 | 18 | ||
| 2013-06-06T12:15 | 15058 | 127 | -60.7 | |||
| 2013-06-06T12:16 | 15136 | 126 | 300 | 18 | ||
| 2013-06-06T12:16 | 15171 | 125 | -60.5 | |||
| 2013-06-06T12:18 | 15874 | 112 | -63.8 | |||
| 2013-06-06T12:18 | 16046 | 109 | -63.5 | |||
| 2013-06-06T12:19 | 16211 | 106 | -64.3 | |||
| 2013-06-06T12:19 | 16353 | 103 | 315 | 10 | ||
| 2013-06-06T12:20 | 16544 | 100 | -63.7 | 320 | 11 | |
| 2013-06-06T12:20 | 16701 | 98 | 301 | 11 | ||
| 2013-06-06T12:20 | 16745 | 97 | -64.0 | |||
| 2013-06-06T12:21 | 16832 | 95 | -63.1 | |||
| 2013-06-06T12:22 | 17201 | 90 | 316 | 17 | ||
| 2013-06-06T12:22 | 17345 | 88 | -63.1 | |||
| 2013-06-06T12:23 | 17437 | 87 | 316 | 14 | ||
| 2013-06-06T12:24 | 17936 | 80 | 352 | 10 | ||
| 2013-06-06T12:24 | 17996 | 79 | -64.5 | |||
| 2013-06-06T12:25 | 18176 | 77 | -65.8 | 334 | 11 | |
| 2013-06-06T12:25 | 18427 | 74 | -64.3 | |||
| 2013-06-06T12:26 | 18567 | 72 | 3 | 9 | ||
| 2013-06-06T12:26 | 18685 | 71 | -65.3 | |||
| 2013-06-06T12:26 | 18789 | 69 | 359 | 9 | ||
| 2013-06-06T12:27 | 19086 | 66 | -63.0 | |||
| 2013-06-06T12:29 | 19499 | 62 | -63.7 | 48 | 8 | |
| 2013-06-06T12:29 | 19609 | 61 | -62.0 | |||
| 2013-06-06T12:29 | 19690 | 60 | 31 | 7 | ||
| 2013-06-06T12:30 | 19870 | 58 | 48 | 5 | ||
| 2013-06-06T12:30 | 19918 | 58 | -61.5 | |||
| 2013-06-06T12:30 | 20024 | 57 | 56 | 3 | ||
| 2013-06-06T12:30 | 20060 | 56 | -60.7 | |||
| 2013-06-06T12:30 | 20121 | 56 | -58.9 | |||
| 2013-06-06T12:31 | 20337 | 54 | 15 | 5 | ||
| 2013-06-06T12:31 | 20489 | 53 | -60.5 | |||
| 2013-06-06T12:32 | 20665 | 51 | 59 | 6 | ||
| 2013-06-06T12:32 | 20843 | 50 | 23 | 6 | ||
| 2013-06-06T12:33 | 21133 | 48 | -58.7 | |||
| 2013-06-06T12:33 | 21267 | 47 | 49 | 6 | ||
| 2013-06-06T12:34 | 21460 | 45 | 33 | 9 | ||
| 2013-06-06T12:34 | 21522 | 45 | -56.4 | |||
| 2013-06-06T12:35 | 21760 | 43 | 49 | 6 | ||
| 2013-06-06T12:35 | 21921 | 42 | -57.9 | |||
| 2013-06-06T12:35 | 22021 | 41 | 43 | 10 | ||
| 2013-06-06T12:36 | 22165 | 40 | 56 | 12 | ||
| 2013-06-06T12:37 | 22702 | 37 | -57.5 | |||
| 2013-06-06T12:38 | 22792 | 37 | 85 | 5 | ||
| 2013-06-06T12:38 | 22927 | 36 | 75 | 2 | ||
| 2013-06-06T12:38 | 22988 | 35 | -55.8 | |||
| 2013-06-06T12:38 | 23057 | 35 | 56 | 5 | ||
| 2013-06-06T12:39 | 23304 | 34 | 58 | 6 | ||
| 2013-06-06T12:40 | 23610 | 32 | 7 | 5 | ||
| 2013-06-06T12:40 | 23769 | 31 | 23 | 6 | ||
| 2013-06-06T12:40 | 23828 | 31 | -55.3 | |||
| 2013-06-06T12:41 | 23938 | 31 | 69 | 5 | ||
| 2013-06-06T12:42 | 24541 | 28 | -52.0 | |||
| 2013-06-06T12:43 | 24694 | 27 | 26 | 5 | ||
| 2013-06-06T12:44 | 25137 | 25 | 63 | 8 | ||
| 2013-06-06T12:44 | 25205 | 25 | -52.9 | |||
| 2013-06-06T12:44 | 25440 | 24 | 49 | 7 | ||
| 2013-06-06T12:45 | 25657 | 23 | 73 | 7 | ||
| 2013-06-06T12:46 | 25842 | 23 | -51.4 | |||
| 2013-06-06T12:46 | 26073 | 22 | 50 | 10 | ||
| 2013-06-06T12:47 | 26268 | 21 | -51.9 | 61 | 9 | |
| 2013-06-06T23:30 | 18 | 1012 | 22.7 | 18.7 | 350 | 3 |
| 2013-06-06T23:30 | 37 | 1010 | 22.4 | 17.3 | ||
| 2013-06-06T23:30 | 119 | 1000 | 21.1 | 18.1 | ||
| 2013-06-06T23:31 | 384 | 970 | 17.1 | 16.1 | ||
| 2013-06-06T23:31 | 514 | 955 | 16.5 | 16.2 | ||
| 2013-06-06T23:32 | 627 | 943 | 15.3 | 14.8 | ||
| 2013-06-06T23:32 | 712 | 933 | 15.2 | 14.6 | ||
| 2013-06-06T23:32 | 733 | 931 | 14.6 | 12.5 | ||
| 2013-06-06T23:32 | 755 | 928 | 14.8 | 10.4 | ||
| 2013-06-06T23:32 | 798 | 924 | 16.5 | 10.4 | ||
| 2013-06-06T23:32 | 827 | 921 | 17.8 | 7.8 | ||
| 2013-06-06T23:32 | 860 | 917 | 18.1 | 6.9 | ||
| 2013-06-06T23:33 | 984 | 904 | 17.6 | 7.1 | ||
| 2013-06-06T23:34 | 1351 | 866 | 42 | 6 | ||
| 2013-06-06T23:34 | 1359 | 865 | 14.9 | 4.9 | ||
| 2013-06-06T23:34 | 1405 | 860 | 14.4 | 8.8 | ||
| 2013-06-06T23:34 | 1484 | 852 | 12 | 6 | ||
| 2013-06-06T23:34 | 1529 | 848 | 13.3 | 9.7 | ||
| 2013-06-06T23:35 | 1652 | 835 | 12.7 | 7.2 | ||
| 2013-06-06T23:35 | 1709 | 830 | 12.3 | 8.4 | ||
| 2013-06-06T23:35 | 1761 | 825 | 2 | 6 | ||
| 2013-06-06T23:36 | 1951 | 806 | 10.6 | 6.5 | ||
| 2013-06-06T23:36 | 2038 | 798 | 10.3 | 4.4 | ||
| 2013-06-06T23:37 | 2304 | 773 | 8.9 | 2.0 | ||
| 2013-06-06T23:37 | 2375 | 766 | 27 | 5 | ||
| 2013-06-06T23:37 | 2495 | 755 | 7.9 | 2.2 | ||
| 2013-06-06T23:38 | 2671 | 739 | 1 | 5 | ||
| 2013-06-06T23:38 | 2813 | 726 | 6.5 | 0.0 | ||
| 2013-06-06T23:38 | 2900 | 719 | 321 | 5 | ||
| 2013-06-06T23:39 | 3009 | 709 | 5.1 | -1.1 | ||
| 2013-06-06T23:39 | 3191 | 694 | 357 | 7 | ||
| 2013-06-06T23:39 | 3250 | 689 | 2.9 | -2.6 | ||
| 2013-06-06T23:40 | 3341 | 681 | 2.4 | -4.8 | ||
| 2013-06-06T23:40 | 3410 | 675 | 1.9 | -5.0 | ||
| 2013-06-06T23:40 | 3519 | 666 | 1.5 | -8.6 | ||
| 2013-06-06T23:40 | 3531 | 665 | 1 | 5 | ||
| 2013-06-06T23:41 | 3731 | 649 | 342 | 6 | ||
| 2013-06-06T23:41 | 3859 | 638 | 349 | 7 | ||
| 2013-06-06T23:41 | 3869 | 638 | -1.1 | -7.5 | ||
| 2013-06-06T23:41 | 3892 | 636 | -0.9 | -8.1 | ||
| 2013-06-06T23:42 | 3984 | 628 | -0.1 | -21.0 | ||
| 2013-06-06T23:42 | 4030 | 625 | 0.1 | -28.0 | ||
| 2013-06-06T23:42 | 4075 | 621 | 320 | 11 | ||
| 2013-06-06T23:42 | 4128 | 617 | 0.0 | -35.3 | ||
| 2013-06-06T23:42 | 4241 | 609 | 334 | 8 | ||
| 2013-06-06T23:43 | 4379 | 598 | 319 | 8 | ||
| 2013-06-06T23:43 | 4390 | 597 | -1.7 | -29.4 | ||
| 2013-06-06T23:43 | 4470 | 591 | -2.1 | -23.9 | ||
| 2013-06-06T23:43 | 4504 | 589 | -2.5 | -17.0 | ||
| 2013-06-06T23:43 | 4566 | 584 | -3.1 | -14.2 | ||
| 2013-06-06T23:44 | 4752 | 571 | -4.2 | -15.8 | ||
| 2013-06-06T23:44 | 4799 | 567 | -4.5 | -13.6 | ||
| 2013-06-06T23:44 | 4947 | 557 | -5.1 | -16.9 | ||
| 2013-06-06T23:45 | 5033 | 551 | -5.3 | -17.1 | ||
| 2013-06-06T23:45 | 5255 | 535 | -6.9 | -17.1 | ||
| 2013-06-06T23:45 | 5312 | 531 | -6.9 | -18.9 | ||
| 2013-06-06T23:46 | 5456 | 522 | -7.8 | -19.4 | ||
| 2013-06-06T23:46 | 5635 | 510 | -9.5 | -20.9 | ||
| 2013-06-06T23:47 | 5720 | 504 | -9.9 | -27.6 | ||
| 2013-06-06T23:47 | 5751 | 502 | 309 | 8 | ||
| 2013-06-06T23:48 | 6012 | 485 | -12.5 | -30.9 | ||
| 2013-06-06T23:48 | 6086 | 481 | -11.7 | -57.8 | ||
| 2013-06-06T23:48 | 6288 | 468 | -12.6 | -58.3 | ||
| 2013-06-06T23:49 | 6330 | 465 | -12.8 | -35.5 | ||
| 2013-06-06T23:49 | 6409 | 461 | 291 | 13 | ||
| 2013-06-06T23:49 | 6418 | 460 | -13.4 | -34.6 | ||
| 2013-06-06T23:49 | 6505 | 455 | -13.3 | -37.6 | ||
| 2013-06-06T23:50 | 6630 | 447 | -14.1 | -39.2 | ||
| 2013-06-06T23:50 | 6774 | 439 | -14.3 | -39.3 | ||
| 2013-06-06T23:50 | 6784 | 438 | 303 | 17 | ||
| 2013-06-06T23:51 | 7173 | 416 | -17.4 | -40.1 | ||
| 2013-06-06T23:51 | 7261 | 412 | 292 | 21 | ||
| 2013-06-06T23:52 | 7483 | 399 | -20.4 | -37.6 | ||
| 2013-06-06T23:53 | 7606 | 393 | -21.0 | -37.2 | ||
| 2013-06-06T23:53 | 7783 | 383 | -22.6 | -36.1 | ||
| 2013-06-06T23:53 | 7857 | 380 | -22.8 | -41.2 | ||
| 2013-06-06T23:53 | 7891 | 378 | 288 | 16 | ||
| 2013-06-06T23:54 | 8039 | 370 | -23.7 | -44.4 | ||
| 2013-06-06T23:55 | 8413 | 352 | -27.1 | -42.0 | ||
| 2013-06-06T23:55 | 8538 | 346 | -27.6 | -43.7 | ||
| 2013-06-06T23:56 | 8710 | 337 | -28.9 | -40.4 | ||
| 2013-06-06T23:56 | 8757 | 335 | 306 | 23 | ||
| 2013-06-06T23:56 | 8833 | 332 | -29.9 | -40.2 | ||
| 2013-06-06T23:57 | 8964 | 326 | -31.0 | -41.5 | ||
| 2013-06-06T23:58 | 9249 | 313 | -33.5 | -50.2 | ||
| 2013-06-06T23:58 | 9396 | 306 | -35.0 | -51.5 | ||
| 2013-06-07T00:00 | 9917 | 284 | 300 | 27 | ||
| 2013-06-07T00:00 | 9960 | 282 | -40.0 | -57.3 | ||
| 2013-06-07T00:01 | 10348 | 267 | -43.4 | |||
| 2013-06-07T00:02 | 10672 | 254 | 303 | 30 | ||
| 2013-06-07T00:04 | 11320 | 230 | -49.7 | |||
| 2013-06-07T00:05 | 11581 | 221 | 279 | 34 | ||
| 2013-06-07T00:07 | 12252 | 199 | -57.8 | |||
| 2013-06-07T00:07 | 12283 | 198 | 288 | 44 | ||
| 2013-06-07T00:07 | 12365 | 196 | -58.0 | |||
| 2013-06-07T00:08 | 12466 | 192 | -57.5 | |||
| 2013-06-07T00:08 | 12741 | 184 | -59.0 | |||
| 2013-06-07T00:09 | 12918 | 179 | -59.0 | |||
| 2013-06-07T00:09 | 13011 | 176 | -58.2 | |||
| 2013-06-07T00:11 | 13476 | 164 | -60.4 | |||
| 2013-06-07T00:11 | 13622 | 160 | -60.5 | |||
| 2013-06-07T00:12 | 13752 | 157 | -59.6 | |||
| 2013-06-07T00:12 | 14026 | 150 | -59.5 | |||
| 2013-06-07T00:12 | 14060 | 149 | 317 | 28 | ||
| 2013-06-07T00:13 | 14091 | 149 | -58.6 | |||
| 2013-06-07T00:13 | 14175 | 147 | -59.0 | |||
| 2013-06-07T00:13 | 14290 | 144 | -57.9 | |||
| 2013-06-07T00:14 | 14618 | 137 | -58.8 | |||
| 2013-06-07T00:15 | 14882 | 131 | -60.7 | |||
| 2013-06-07T00:16 | 15061 | 127 | -60.5 | |||
| 2013-06-07T00:16 | 15226 | 124 | -61.6 | |||
| 2013-06-07T00:17 | 15390 | 121 | -61.2 | |||
| 2013-06-07T00:18 | 15706 | 115 | -63.3 | |||
| 2013-06-07T00:18 | 15749 | 114 | 323 | 24 | ||
| 2013-06-07T00:18 | 15994 | 109 | -63.7 | |||
| 2013-06-07T00:19 | 16190 | 106 | 345 | 18 | ||
| 2013-06-07T00:19 | 16232 | 105 | -63.0 | |||
| 2013-06-07T00:20 | 16540 | 100 | -65.3 | 328 | 14 | |
| 2013-06-07T00:21 | 16724 | 97 | -66.1 | |||
| 2013-06-07T00:21 | 16769 | 96 | 315 | 17 | ||
| 2013-06-07T00:21 | 16871 | 95 | -65.2 | |||
| 2013-06-07T00:22 | 17147 | 91 | 346 | 12 | ||
| 2013-06-07T00:23 | 17426 | 86 | -66.7 | |||
| 2013-06-07T00:24 | 17891 | 80 | 321 | 10 | ||
| 2013-06-07T00:25 | 18009 | 79 | -65.0 | |||
| 2013-06-07T00:25 | 18166 | 77 | -65.8 | |||
| 2013-06-07T00:26 | 18334 | 74 | -64.7 | |||
| 2013-06-07T00:26 | 18627 | 71 | 351 | 14 | ||
| 2013-06-07T00:27 | 18697 | 70 | -64.7 | |||
| 2013-06-07T00:27 | 18900 | 68 | -65.9 | |||
| 2013-06-07T00:28 | 19036 | 66 | -64.3 | |||
| 2013-06-07T00:28 | 19254 | 64 | 20 | 6 | ||
| 2013-06-07T00:29 | 19392 | 63 | -65.7 | 3 | 7 | |
| 2013-06-07T00:30 | 19918 | 57 | 40 | 10 | ||
| 2013-06-07T00:30 | 19952 | 57 | -62.6 | |||
| 2013-06-07T00:31 | 20346 | 54 | -62.2 | |||
| 2013-06-07T00:32 | 20551 | 52 | -60.1 | |||
| 2013-06-07T00:33 | 20798 | 50 | -58.9 | |||
| 2013-06-07T00:33 | 20822 | 50 | 60 | 11 | ||
| 2013-06-07T00:33 | 21009 | 48 | -59.8 | |||
| 2013-06-07T00:34 | 21113 | 47 | -57.8 | |||
| 2013-06-07T00:34 | 21268 | 46 | 73 | 5 | ||
| 2013-06-07T00:34 | 21396 | 45 | -56.4 | |||
| 2013-06-07T00:35 | 21638 | 44 | 53 | 8 | ||
| 2013-06-07T00:36 | 21961 | 41 | 86 | 7 | ||
| 2013-06-07T00:36 | 22010 | 41 | -58.4 | |||
| 2013-06-07T00:37 | 22272 | 39 | 45 | 6 | ||
| 2013-06-07T00:38 | 22596 | 37 | -57.9 | |||
| 2013-06-07T00:38 | 22619 | 37 | 61 | 6 | ||
| 2013-06-07T00:39 | 22945 | 35 | 33 | 6 | ||
| 2013-06-07T00:39 | 23138 | 34 | 77 | 7 |
Only the first 2000 rows were shown. To view the complete dataset, download it as tab-delimited text. You can still view the full matrix in your browser, but be aware that this may crash the browser due to the huge size.
